SU1311 / RA-89061 7700 Squawk Report (15th of May, 2020)

Aircraft SU95 Reg No. RA-89061 Age 5 years old
Model SSJ-100 Jet engines 2 First flight 23-03-15
Registered 28-10-15 Rollout 02-15 Delivered 28-10-15
Construction No. 95090 Line No. 090 Series 95B
ADSHEX 155BE5 Airline name Aeroflot Russian Airlines Owner N/A
Airfield based Moscow-Sheremetyevo~Moscow~RA First tracked N/A

Flight history for RA-89061

Time Lat Lon Altitude Heading Speed Vertical Rate
2020-05-15 15:56:36 GMT 55.979702 37.360050 0 334 0 0
2020-05-15 15:56:16 GMT 55.979706 37.360062 0 334 0 0
2020-05-15 15:56:07 GMT 55.979649 37.360104 0 334 5 0
2020-05-15 15:55:56 GMT 55.979309 37.360252 0 323 7 0
2020-05-15 15:55:47 GMT 55.979088 37.360531 0 317 8 0
2020-05-15 15:55:37 GMT 55.978928 37.361305 0 317 11 0
2020-05-15 15:55:25 GMT 55.978718 37.362057 0 317 7 0
2020-05-15 15:55:16 GMT 55.978401 37.362270 0 295 12 0
2020-05-15 15:55:04 GMT 55.977634 37.362637 0 295 17 0
2020-05-15 15:54:56 GMT 55.977039 37.362934 0 295 17 0
2020-05-15 15:54:45 GMT 55.976330 37.363258 0 295 13 0
2020-05-15 15:54:32 GMT 55.975708 37.363647 0 295 11 0
2020-05-15 15:54:19 GMT 55.975216 37.364189 0 295 10 0
2020-05-15 15:54:12 GMT 55.974941 37.364563 0 295 10 0
2020-05-15 15:54:00 GMT 55.974575 37.365250 0 295 11 0
2020-05-15 15:53:55 GMT 55.974377 37.365768 0 295 12 0
2020-05-15 15:53:38 GMT 55.973751 37.367912 0 295 22 0
2020-05-15 15:53:31 GMT 55.973499 37.368809 0 295 22 0
2020-05-15 15:53:21 GMT 55.973038 37.370487 0 298 21 0
2020-05-15 15:53:09 GMT 55.972584 37.372074 0 306 19 0
2020-05-15 15:52:55 GMT 55.972084 37.373856 0 306 17 0
2020-05-15 15:52:47 GMT 55.971794 37.374905 0 306 16 0
2020-05-15 15:52:39 GMT 55.971554 37.375778 0 306 15 0
2020-05-15 15:52:27 GMT 55.971188 37.377071 0 306 13 0
2020-05-15 15:52:17 GMT 55.970982 37.377777 0 306 11 0
2020-05-15 15:52:08 GMT 55.970810 37.378506 0 306 9 0
2020-05-15 15:51:45 GMT 55.970879 37.381210 0 306 18 0
2020-05-15 15:51:30 GMT 55.970970 37.382729 0 306 16 0
2020-05-15 15:51:19 GMT 55.971153 37.384060 0 306 15 0
2020-05-15 15:51:11 GMT 55.971291 37.384975 0 306 12 0
2020-05-15 15:50:59 GMT 55.971394 37.385811 0 306 9 0
2020-05-15 15:50:44 GMT 55.971096 37.386517 0 250 10 0
2020-05-15 15:50:32 GMT 55.970535 37.386806 0 250 14 0
2020-05-15 15:50:25 GMT 55.970066 37.387016 0 250 14 0
2020-05-15 15:50:13 GMT 55.969425 37.387329 0 250 13 0
2020-05-15 15:50:03 GMT 55.968906 37.387569 0 250 11 0
2020-05-15 15:49:54 GMT 55.968510 37.387741 0 250 11 0
2020-05-15 15:49:41 GMT 55.967766 37.388119 0 250 9 0
2020-05-15 15:49:34 GMT 55.967606 37.388348 0 250 10 0
2020-05-15 15:49:23 GMT 55.967525 37.388931 0 244 6 0
2020-05-15 15:49:13 GMT 55.967648 37.389801 0 255 18 0
2020-05-15 15:49:02 GMT 55.967903 37.391510 0 255 25 0
2020-05-15 15:48:52 GMT 55.968311 37.394135 0 255 37 0
2020-05-15 15:48:40 GMT 55.968796 37.397419 0 255 42 0
2020-05-15 15:48:31 GMT 55.969337 37.400982 0 255 46 0
2020-05-15 15:48:19 GMT 55.969940 37.405033 0 255 51 0
2020-05-15 15:48:04 GMT 55.970959 37.411964 0 253 61 0
2020-05-15 15:47:51 GMT 55.971897 37.418232 0 255 72 0
2020-05-15 15:47:29 GMT 55.974655 37.436661 0 255 134 0
2020-05-15 15:47:22 GMT 55.975662 37.443321 775 256 140 -896
2020-05-15 15:47:16 GMT 55.976761 37.450645 850 256 144 -768
2020-05-15 15:47:03 GMT 55.979004 37.465710 1,025 256 146 -832
2020-05-15 15:46:55 GMT 55.980423 37.475113 1,150 255 142 -640
2020-05-15 15:46:50 GMT 55.981255 37.480972 1,175 256 142 -832
2020-05-15 15:46:46 GMT 55.981979 37.485683 1,250 256 141 -768
2020-05-15 15:46:41 GMT 55.982742 37.490845 1,375 256 141 -768
2020-05-15 15:46:38 GMT 55.983307 37.494839 1,350 256 140 -704
2020-05-15 15:46:35 GMT 55.983765 37.497917 1,375 256 140 -896
2020-05-15 15:46:29 GMT 55.984745 37.504234 1,475 255 139 -704
2020-05-15 15:46:24 GMT 55.985538 37.509556 1,525 255 139 -640
2020-05-15 15:46:21 GMT 55.986050 37.512901 1,550 255 137 -704
2020-05-15 15:46:18 GMT 55.986557 37.516148 1,600 255 137 -640
2020-05-15 15:46:15 GMT 55.987198 37.520641 1,625 255 137 -896
2020-05-15 15:46:09 GMT 55.988022 37.525883 1,700 255 137 -704
2020-05-15 15:46:03 GMT 55.989029 37.532627 1,775 256 140 -832
2020-05-15 15:46:00 GMT 55.989624 37.536621 1,825 256 139 -768
2020-05-15 15:45:54 GMT 55.990585 37.543030 1,900 256 139 -768
2020-05-15 15:45:49 GMT 55.991318 37.548191 1,925 255 141 -960
2020-05-15 15:45:43 GMT 55.992279 37.554516 2,025 256 143 -832
2020-05-15 15:45:39 GMT 55.993031 37.559593 2,075 256 145 -768
2020-05-15 15:45:34 GMT 55.994007 37.566292 2,225 256 148 -576
2020-05-15 15:45:29 GMT 55.994892 37.572212 2,225 256 151 -896
2020-05-15 15:45:24 GMT 55.995964 37.579510 2,400 256 162 -832
2020-05-15 15:45:18 GMT 55.996719 37.584476 2,350 256 159 -896
2020-05-15 15:45:12 GMT 55.998688 37.597713 2,475 256 164 -896
2020-05-15 15:45:08 GMT 55.998688 37.597713 2,500 256 164 -768
2020-05-15 15:45:02 GMT 55.999920 37.606201 2,600 256 167 -768
2020-05-15 15:44:58 GMT 56.001038 37.613667 2,650 256 168 -640
2020-05-15 15:44:52 GMT 56.001801 37.618851 2,700 255 168 -384
2020-05-15 15:44:49 GMT 56.002716 37.625084 2,725 255 169 -320
2020-05-15 15:44:45 GMT 56.003220 37.628426 2,750 255 171 -448
2020-05-15 15:44:42 GMT 56.004089 37.633999 2,775 255 171 -512
2020-05-15 15:44:36 GMT 56.005367 37.642338 2,825 256 172 -512
2020-05-15 15:44:33 GMT 56.006020 37.646626 2,825 256 171 -384
2020-05-15 15:44:29 GMT 56.006531 37.650230 2,850 256 171 -384
2020-05-15 15:44:23 GMT 56.007568 37.658970 2,875 262 170 -576
2020-05-15 15:44:20 GMT 56.007881 37.663193 2,925 264 169 -448
2020-05-15 15:44:15 GMT 56.008022 37.671776 2,950 276 163 -512
2020-05-15 15:44:10 GMT 56.007660 37.676365 2,975 283 162 -384
2020-05-15 15:44:01 GMT 56.004765 37.688770 3,025 305 165 -256
2020-05-15 15:43:51 GMT 55.999374 37.698917 3,075 325 174 -512
2020-05-15 15:43:47 GMT 55.997498 37.701248 3,100 325 177 -576
2020-05-15 15:43:43 GMT 55.994156 37.705410 3,800 325 189 -768
2020-05-15 15:43:40 GMT 55.992332 37.707741 3,200 325 184 -640
2020-05-15 15:43:37 GMT 55.988846 37.712154 3,225 326 185 -576
2020-05-15 15:43:30 GMT 55.984558 37.717525 3,275 325 189 -768
2020-05-15 15:43:25 GMT 55.982254 37.720390 3,325 325 190 -768
2020-05-15 15:43:22 GMT 55.979298 37.724049 3,375 325 193 -832
2020-05-15 15:43:19 GMT 55.977623 37.726192 3,425 326 195 -768
2020-05-15 15:43:16 GMT 55.974747 37.729713 3,450 325 196 -704
2020-05-15 15:43:08 GMT 55.969345 37.736458 3,550 326 201 -704
2020-05-15 15:43:05 GMT 55.966961 37.739410 3,600 325 203 -832
2020-05-15 15:42:59 GMT 55.961983 37.745674 3,675 326 214 -768
2020-05-15 15:42:54 GMT 55.958862 37.749439 3,725 326 210 -896
2020-05-15 15:42:49 GMT 55.950436 37.760010 3,850 326 214 -768
2020-05-15 15:42:45 GMT 55.950436 37.760010 3,875 326 215 -896
2020-05-15 15:42:37 GMT 55.944214 37.767666 3,975 326 216 -768
2020-05-15 15:42:28 GMT 55.937401 37.775974 4,150 326 218 -768
2020-05-15 15:42:25 GMT 55.931023 37.783871 4,175 326 218 -704
2020-05-15 15:42:18 GMT 55.929199 37.786060 4,775 326 218 -768
2020-05-15 15:42:15 GMT 55.926086 37.789806 4,300 326 217 -640
2020-05-15 15:42:07 GMT 55.920036 37.797260 4,325 326 217 -512
2020-05-15 15:42:03 GMT 55.916290 37.801792 4,375 326 217 -640
2020-05-15 15:41:58 GMT 55.912170 37.806786 4,425 326 217 -640
2020-05-15 15:41:55 GMT 55.906494 37.813774 4,475 326 217 -640
2020-05-15 15:41:47 GMT 55.903091 37.817944 4,525 326 217 -832
2020-05-15 15:41:44 GMT 55.900681 37.820850 4,650 326 216 -768
2020-05-15 15:41:40 GMT 55.897339 37.824928 6,275 340 230 -768
2020-05-15 15:41:33 GMT 55.891594 37.831936 4,725 326 217 -704
2020-05-15 15:41:30 GMT 55.888615 37.835541 4,800 326 218 -832
2020-05-15 15:41:27 GMT 55.886520 37.838203 4,800 326 218 -768
2020-05-15 15:41:21 GMT 55.881073 37.844810 4,875 335 224 -768
2020-05-15 15:41:17 GMT 55.878139 37.848499 4,900 325 218 -768
2020-05-15 15:41:13 GMT 55.875114 37.852280 4,975 326 219 -768
2020-05-15 15:41:06 GMT 55.869232 37.858971 5,050 330 221 -768
2020-05-15 15:41:03 GMT 55.866550 37.861717 5,100 332 222 -704
2020-05-15 15:41:00 GMT 55.859940 37.867626 5,175 335 224 -896
2020-05-15 15:40:57 GMT 55.859940 37.867626 5,175 337 225 -832
2020-05-15 15:40:53 GMT 55.856964 37.869873 5,225 339 226 -832
2020-05-15 15:40:46 GMT 55.850349 37.874336 5,325 340 227 -896
2020-05-15 15:40:40 GMT 55.844715 37.878029 5,400 340 227 -768
2020-05-15 15:40:35 GMT 55.839550 37.881458 5,475 340 226 -832
2020-05-15 15:40:30 GMT 55.834568 37.884724 5,575 340 226 -704
2020-05-15 15:40:26 GMT 55.829819 37.887897 5,675 340 225 -576
2020-05-15 15:40:23 GMT 55.826981 37.889767 5,650 340 225 -576
2020-05-15 15:40:20 GMT 55.824512 37.891331 5,700 340 224 -896
2020-05-15 15:40:15 GMT 55.820023 37.894344 5,750 340 224 -960
2020-05-15 15:40:12 GMT 55.817001 37.896339 5,750 340 224 -960
2020-05-15 15:40:09 GMT 55.814301 37.898087 5,875 340 225 -640
2020-05-15 15:40:04 GMT 55.808258 37.902000 5,950 340 230 -704
2020-05-15 15:39:59 GMT 55.804497 37.904465 6,000 340 228 -448
2020-05-15 15:39:53 GMT 55.797775 37.908825 6,025 340 229 -384
2020-05-15 15:39:49 GMT 55.794113 37.911240 6,225 340 231 -768
2020-05-15 15:39:45 GMT 55.789856 37.914066 6,050 340 231 -768
2020-05-15 15:39:42 GMT 55.787178 37.915791 6,100 340 231 -832
2020-05-15 15:39:38 GMT 55.781662 37.919395 6,175 340 231 -704
2020-05-15 15:39:35 GMT 55.780148 37.920425 6,175 340 231 -704
2020-05-15 15:39:32 GMT 55.776657 37.922745 6,475 340 232 -576
2020-05-15 15:39:28 GMT 55.773193 37.924973 6,250 340 230 -704
2020-05-15 15:39:25 GMT 55.769760 37.927303 6,300 340 230 -768
2020-05-15 15:39:21 GMT 55.766182 37.929611 6,375 340 231 -704
2020-05-15 15:39:14 GMT 55.759186 37.934212 6,475 340 232 -640
2020-05-15 15:39:11 GMT 55.756027 37.936291 6,550 340 234 -896
2020-05-15 15:39:04 GMT 55.747971 37.941532 6,550 340 236 -1152
2020-05-15 15:39:01 GMT 55.741882 37.945492 6,650 340 236 -960
2020-05-15 15:38:54 GMT 55.739182 37.947277 6,675 340 236 -960
2020-05-15 15:38:50 GMT 55.735550 37.949612 6,825 340 239 -704
2020-05-15 15:38:43 GMT 55.724625 37.956764 7,550 340 258 -1152
2020-05-15 15:38:40 GMT 55.724625 37.956764 7,050 340 242 -512
2020-05-15 15:38:33 GMT 55.715973 37.962425 6,950 340 247 -640
2020-05-15 15:38:30 GMT 55.714005 37.963673 7,050 340 251 -704
2020-05-15 15:38:26 GMT 55.709793 37.966503 7,025 340 252 -704
2020-05-15 15:38:23 GMT 55.706268 37.968838 7,550 340 258 -1152
2020-05-15 15:38:20 GMT 55.702499 37.971237 7,550 340 258 -1152
2020-05-15 15:38:13 GMT 55.694912 37.976215 7,175 340 261 -1088
2020-05-15 15:38:09 GMT 55.690395 37.979137 7,275 340 261 -1344
2020-05-15 15:38:06 GMT 55.686253 37.981796 7,325 340 262 -2176
2020-05-15 15:38:03 GMT 55.684525 37.982983 7,375 340 262 -2048
2020-05-15 15:38:00 GMT 55.679581 37.986229 8,200 340 262 -2304
2020-05-15 15:37:56 GMT 55.671310 37.991581 7,700 340 262 -2304
2020-05-15 15:37:53 GMT 55.671310 37.991581 7,800 340 261 -2560
2020-05-15 15:37:49 GMT 55.667725 37.993885 8,600 340 263 -2432
2020-05-15 15:37:42 GMT 55.659897 37.999046 8,125 340 261 -2560
2020-05-15 15:37:39 GMT 55.656555 38.001209 8,600 340 263 -2432
2020-05-15 15:37:33 GMT 55.649643 38.005703 8,575 340 263 -2368
2020-05-15 15:37:29 GMT 55.643936 38.009350 8,750 340 264 -2304
2020-05-15 15:37:26 GMT 55.640991 38.011280 8,825 340 265 -1920
2020-05-15 15:37:21 GMT 55.636505 38.014194 9,025 340 267 -1536
2020-05-15 15:37:17 GMT 55.631424 38.017525 9,075 340 268 -1472
2020-05-15 15:37:13 GMT 55.627132 38.020332 9,175 340 268 -1536
2020-05-15 15:37:10 GMT 55.623035 38.022995 9,225 340 268 -1536
2020-05-15 15:37:07 GMT 55.619019 38.025597 9,350 340 268 -1536
2020-05-15 15:37:04 GMT 55.615448 38.027927 9,425 340 268 -1600
2020-05-15 15:37:01 GMT 55.608307 38.032505 9,550 340 268 -1664
2020-05-15 15:36:57 GMT 55.608307 38.032505 9,675 340 267 -1728
2020-05-15 15:36:53 GMT 55.603729 38.035500 9,750 340 267 -1664
2020-05-15 15:36:50 GMT 55.599850 38.038013 10,100 340 267 -1792
2020-05-15 15:36:47 GMT 55.596825 38.039989 9,875 340 267 -1728
2020-05-15 15:36:41 GMT 55.589844 38.044537 10,225 340 268 -1472
2020-05-15 15:36:38 GMT 55.585514 38.047371 10,225 340 268 -1472
2020-05-15 15:36:34 GMT 55.580429 38.050648 10,250 340 268 -1728
2020-05-15 15:36:31 GMT 55.576996 38.052864 10,350 340 268 -1536
2020-05-15 15:36:27 GMT 55.573318 38.055267 10,425 340 269 -1344
2020-05-15 15:36:23 GMT 55.569176 38.057926 10,525 340 269 -1216
2020-05-15 15:36:20 GMT 55.565311 38.060417 10,775 341 275 -1024
2020-05-15 15:36:17 GMT 55.561913 38.062649 10,725 340 272 -1344
2020-05-15 15:36:13 GMT 55.555767 38.066597 10,750 340 272 -1344
2020-05-15 15:36:10 GMT 55.553009 38.068375 10,825 340 273 -1472
2020-05-15 15:36:06 GMT 55.546597 38.072605 10,950 340 274 -1536
2020-05-15 15:36:02 GMT 55.543709 38.074493 10,950 340 274 -1856
2020-05-15 15:35:58 GMT 55.538727 38.077667 11,375 340 274 -1600
2020-05-15 15:35:55 GMT 55.532364 38.081776 11,275 340 274 -1792
2020-05-15 15:35:49 GMT 55.528015 38.084606 11,400 340 274 -1472
2020-05-15 15:35:46 GMT 55.524345 38.086941 11,525 341 275 -1152
2020-05-15 15:35:43 GMT 55.513962 38.093594 11,600 340 276 -896
2020-05-15 15:35:37 GMT 55.513962 38.093594 11,675 340 277 -704
2020-05-15 15:35:34 GMT 55.509109 38.096756 11,700 340 279 -768
2020-05-15 15:35:31 GMT 55.506134 38.098671 11,725 340 283 -832
2020-05-15 15:35:28 GMT 55.502556 38.101013 11,750 340 284 -896
2020-05-15 15:35:25 GMT 55.491199 38.108311 11,850 340 288 -512
2020-05-15 15:35:19 GMT 55.491199 38.108311 11,850 341 292 -640
2020-05-15 15:35:15 GMT 55.483566 38.113235 11,925 341 295 -1152
2020-05-15 15:35:09 GMT 55.477798 38.116898 12,000 340 298 -1664
2020-05-15 15:35:05 GMT 55.471786 38.120842 12,125 340 298 -2048
2020-05-15 15:34:56 GMT 55.461964 38.127110 12,450 340 298 -1856
2020-05-15 15:34:53 GMT 55.458099 38.129597 12,450 340 298 -1856
2020-05-15 15:34:46 GMT 55.447723 38.136292 12,750 340 299 -1600
2020-05-15 15:34:42 GMT 55.443344 38.139122 12,825 340 299 -1600
2020-05-15 15:34:37 GMT 55.437943 38.142616 13,475 340 311 -1920
2020-05-15 15:34:34 GMT 55.433350 38.145500 13,050 340 302 -1792
2020-05-15 15:34:31 GMT 55.429276 38.148167 13,300 340 302 -1728
2020-05-15 15:34:28 GMT 55.424515 38.151154 13,225 340 303 -1600
2020-05-15 15:34:25 GMT 55.420811 38.153603 13,475 340 304 -1472
2020-05-15 15:34:22 GMT 55.417603 38.155678 13,350 340 304 -1408
2020-05-15 15:34:17 GMT 55.411331 38.159637 13,475 341 307 -1472
2020-05-15 15:34:13 GMT 55.405518 38.163353 13,650 341 310 -1728
2020-05-15 15:34:10 GMT 55.400982 38.166252 13,650 341 310 -1728
2020-05-15 15:34:06 GMT 55.395355 38.169895 13,800 340 311 -1920
2020-05-15 15:34:03 GMT 55.392040 38.171997 13,875 340 311 -2496
2020-05-15 15:33:56 GMT 55.383617 38.177406 14,150 340 310 -2624
2020-05-15 15:33:53 GMT 55.373154 38.184113 14,425 340 310 -2688
2020-05-15 15:33:50 GMT 55.373154 38.184113 14,425 340 310 -2688
2020-05-15 15:33:45 GMT 55.368118 38.187347 14,600 340 308 -2624
2020-05-15 15:33:42 GMT 55.364624 38.189560 14,700 340 307 -2560
2020-05-15 15:33:38 GMT 55.359268 38.193054 14,875 340 306 -2496
2020-05-15 15:33:35 GMT 55.354149 38.196301 15,050 340 306 -2496
2020-05-15 15:33:32 GMT 55.351501 38.198009 15,175 340 305 -2432
2020-05-15 15:33:28 GMT 55.345596 38.201805 15,300 340 304 -2304
2020-05-15 15:33:24 GMT 55.340275 38.205288 15,400 340 304 -2240
2020-05-15 15:33:21 GMT 55.336258 38.207863 15,575 340 304 -2112
2020-05-15 15:33:18 GMT 55.328430 38.212872 15,800 340 304 -2048
2020-05-15 15:33:14 GMT 55.327057 38.213779 15,825 340 304 -2112
2020-05-15 15:33:10 GMT 55.319092 38.218849 16,150 340 304 -2176
2020-05-15 15:33:04 GMT 55.313965 38.222164 16,175 341 304 -1984
2020-05-15 15:33:01 GMT 55.310204 38.224514 16,350 341 305 -1792
2020-05-15 15:32:57 GMT 55.304672 38.228062 16,400 341 305 -1792
2020-05-15 15:32:54 GMT 55.299820 38.231209 16,500 341 305 -1728
2020-05-15 15:32:51 GMT 55.296341 38.233391 16,600 341 307 -1792
2020-05-15 15:32:48 GMT 55.292633 38.235733 16,675 340 306 -1856
2020-05-15 15:32:42 GMT 55.283810 38.241409 17,225 341 310 -1984
2020-05-15 15:32:38 GMT 55.279129 38.244377 17,000 340 309 -1856
2020-05-15 15:32:35 GMT 55.273335 38.248070 17,125 341 310 -1920
2020-05-15 15:32:32 GMT 55.269058 38.250759 17,225 341 310 -1984
2020-05-15 15:32:28 GMT 55.264256 38.253811 17,325 340 310 -2048
2020-05-15 15:32:21 GMT 55.255272 38.259556 17,550 340 311 -1984
2020-05-15 15:32:17 GMT 55.250793 38.262390 17,675 341 312 -1856
2020-05-15 15:32:14 GMT 55.246033 38.265461 17,800 341 312 -1856
2020-05-15 15:32:09 GMT 55.240376 38.269043 18,150 341 314 -2112
2020-05-15 15:32:06 GMT 55.236885 38.271290 18,000 341 313 -2048
2020-05-15 15:32:03 GMT 55.231659 38.274590 18,125 341 314 -2112
2020-05-15 15:32:00 GMT 55.228413 38.276615 18,200 341 314 -2048
2020-05-15 15:31:57 GMT 55.222733 38.280247 18,650 341 317 -1984
2020-05-15 15:31:54 GMT 55.218658 38.282829 18,475 341 316 -1920
2020-05-15 15:31:50 GMT 55.213531 38.286060 18,725 340 318 -1984
2020-05-15 15:31:46 GMT 55.208626 38.289185 18,725 340 318 -1984
2020-05-15 15:31:42 GMT 55.203644 38.292362 18,800 341 319 -1984
2020-05-15 15:31:39 GMT 55.198620 38.295509 18,925 341 319 -2048
2020-05-15 15:31:36 GMT 55.195541 38.297451 19,075 341 320 -2112
2020-05-15 15:31:32 GMT 55.189030 38.301586 19,175 341 320 -2176
2020-05-15 15:31:29 GMT 55.184784 38.304317 19,275 341 321 -2176
2020-05-15 15:31:26 GMT 55.180161 38.307224 19,400 341 321 -2176
2020-05-15 15:31:22 GMT 55.174667 38.310699 19,550 340 321 -2240
2020-05-15 15:31:18 GMT 55.169998 38.313686 19,600 340 321 -2304
2020-05-15 15:31:15 GMT 55.165558 38.316437 19,900 341 321 -2368
2020-05-15 15:31:12 GMT 55.161514 38.319065 19,900 341 321 -2368
2020-05-15 15:31:09 GMT 55.155899 38.322575 20,050 341 321 -2368
2020-05-15 15:31:05 GMT 55.146946 38.328220 20,275 341 321 -2304
2020-05-15 15:31:02 GMT 55.146946 38.328220 20,350 341 321 -2304
2020-05-15 15:30:59 GMT 55.142754 38.330883 20,400 341 321 -2304
2020-05-15 15:30:56 GMT 55.139236 38.333076 20,525 341 321 -2176
2020-05-15 15:30:51 GMT 55.131630 38.337875 20,725 341 322 -2112
2020-05-15 15:30:48 GMT 55.128708 38.339783 20,800 340 323 -2240
2020-05-15 15:30:45 GMT 55.124180 38.342617 20,900 341 323 -2112
2020-05-15 15:30:42 GMT 55.118729 38.346081 21,050 340 323 -2176
2020-05-15 15:30:38 GMT 55.110214 38.351440 21,275 341 324 -2304
2020-05-15 15:30:29 GMT 55.099686 38.358116 21,725 341 323 -2560
2020-05-15 15:30:26 GMT 55.095737 38.360680 21,675 340 323 -2688
2020-05-15 15:30:22 GMT 55.089890 38.364418 21,900 341 323 -2496
2020-05-15 15:30:18 GMT 55.081329 38.369831 22,050 341 323 -2496
2020-05-15 15:30:15 GMT 55.081329 38.369831 22,125 341 323 -2432
2020-05-15 15:30:11 GMT 55.075485 38.373497 22,400 341 323 -2112
2020-05-15 15:30:08 GMT 55.071529 38.375992 22,425 341 323 -2048
2020-05-15 15:30:05 GMT 55.067413 38.378555 22,525 341 323 -2048
2020-05-15 15:30:01 GMT 55.061569 38.382320 22,650 341 324 -1856
2020-05-15 15:29:58 GMT 55.053360 38.387444 23,175 340 333 -2368
2020-05-15 15:29:50 GMT 55.044708 38.392937 23,025 341 327 -1920
2020-05-15 15:29:46 GMT 55.040497 38.395599 23,125 341 328 -1984
2020-05-15 15:29:43 GMT 55.027908 38.403519 24,025 340 333 -2368
2020-05-15 15:29:38 GMT 55.027908 38.403519 23,475 341 331 -1984
2020-05-15 15:29:34 GMT 55.022091 38.407204 23,550 341 330 -1984
2020-05-15 15:29:28 GMT 55.009106 38.415359 23,825 340 333 -2240
2020-05-15 15:29:24 GMT 55.009106 38.415359 23,900 340 333 -2496
2020-05-15 15:29:21 GMT 55.002411 38.419594 24,025 340 333 -2496
2020-05-15 15:29:17 GMT 54.999142 38.421684 24,125 340 333 -2560
2020-05-15 15:29:13 GMT 54.993462 38.425266 24,275 341 332 -2624
2020-05-15 15:29:10 GMT 54.987968 38.428761 24,450 341 332 -2560
2020-05-15 15:29:05 GMT 54.981266 38.432922 24,650 341 332 -2560
2020-05-15 15:29:02 GMT 54.977913 38.435085 24,750 341 332 -2432
2020-05-15 15:28:58 GMT 54.970413 38.439789 24,975 341 332 -2176
2020-05-15 15:28:54 GMT 54.965424 38.442940 25,100 341 332 -2048
2020-05-15 15:28:51 GMT 54.962402 38.444798 25,175 341 333 -1984
2020-05-15 15:28:47 GMT 54.954731 38.449570 25,325 341 334 -1728
2020-05-15 15:28:44 GMT 54.950409 38.452309 25,425 341 335 -1728
2020-05-15 15:28:40 GMT 54.944275 38.456188 25,825 341 340 -1792
2020-05-15 15:28:36 GMT 54.939835 38.458973 25,675 341 342 -1856
2020-05-15 15:28:33 GMT 54.934753 38.462086 25,750 341 340 -1856
2020-05-15 15:28:26 GMT 54.924911 38.468304 25,950 341 341 -1856
2020-05-15 15:28:22 GMT 54.919537 38.471622 26,050 341 343 -1920
2020-05-15 15:28:18 GMT 54.912598 38.475979 26,200 341 344 -1920
2020-05-15 15:28:15 GMT 54.909393 38.478001 26,275 341 344 -1920
2020-05-15 15:28:12 GMT 54.904827 38.480862 26,375 341 345 -1920
2020-05-15 15:28:08 GMT 54.898727 38.484703 26,525 341 347 -1920
2020-05-15 15:28:05 GMT 54.889343 38.490520 26,825 341 348 -1984
2020-05-15 15:28:02 GMT 54.889343 38.490520 26,700 341 348 -1984
2020-05-15 15:27:56 GMT 54.879082 38.496925 26,925 341 350 -2112
2020-05-15 15:27:53 GMT 54.874237 38.499969 27,025 341 351 -2048
2020-05-15 15:27:47 GMT 54.865311 38.505547 27,225 341 353 -2176
2020-05-15 15:27:44 GMT 54.862289 38.507484 27,275 341 353 -2176
2020-05-15 15:27:40 GMT 54.855946 38.511410 27,350 341 353 -2112
2020-05-15 15:27:36 GMT 54.848557 38.516048 27,625 341 357 -1920
2020-05-15 15:27:33 GMT 54.843376 38.519234 27,825 341 357 -1920
2020-05-15 15:27:25 GMT 54.832123 38.526226 27,975 341 359 -1920
2020-05-15 15:27:21 GMT 54.824757 38.530800 28,125 341 360 -1856
2020-05-15 15:27:17 GMT 54.819729 38.533962 28,200 341 361 -1856
2020-05-15 15:27:14 GMT 54.815727 38.536461 28,300 341 363 -1920
2020-05-15 15:27:11 GMT 54.810001 38.540039 28,400 341 364 -1856
2020-05-15 15:27:05 GMT 54.799484 38.546581 28,625 341 366 -2048
2020-05-15 15:27:01 GMT 54.794128 38.549892 28,750 341 367 -2304
2020-05-15 15:26:54 GMT 54.782959 38.556843 29,000 341 368 -2240
2020-05-15 15:26:49 GMT 54.774620 38.562012 29,200 341 369 -2240
2020-05-15 15:26:44 GMT 54.766525 38.567101 29,375 341 370 -2176
2020-05-15 15:26:41 GMT 54.760376 38.570915 29,525 341 372 -2176
2020-05-15 15:26:34 GMT 54.743820 38.581158 29,850 341 375 -2112
2020-05-15 15:26:30 GMT 54.743820 38.581158 29,875 341 375 -2112
2020-05-15 15:26:24 GMT 54.734165 38.587147 30,100 341 376 -2240
2020-05-15 15:26:20 GMT 54.727478 38.591335 30,250 341 377 -2240
2020-05-15 15:26:14 GMT 54.717407 38.597549 30,475 341 379 -1792
2020-05-15 15:26:10 GMT 54.710423 38.601795 30,600 341 380 -1600
2020-05-15 15:26:02 GMT 54.699390 38.608704 30,775 341 383 -1728
2020-05-15 15:25:59 GMT 54.693478 38.612366 30,875 341 385 -2048
2020-05-15 15:25:55 GMT 54.686371 38.616783 31,600 341 391 -1856
2020-05-15 15:25:52 GMT 54.682251 38.619286 31,275 341 387 -3072
2020-05-15 15:25:49 GMT 54.676529 38.622921 31,275 341 387 -3200
2020-05-15 15:25:46 GMT 54.665359 38.629787 31,550 341 386 -2752
2020-05-15 15:25:42 GMT 54.665359 38.629787 31,625 341 387 -2624
2020-05-15 15:25:38 GMT 54.658081 38.634312 31,800 341 387 -2368
2020-05-15 15:25:33 GMT 54.648510 38.640163 32,025 341 391 -1856
2020-05-15 15:25:29 GMT 54.641190 38.644653 32,225 341 388 -2240
2020-05-15 15:25:22 GMT 54.628830 38.652245 32,500 341 390 -2048
2020-05-15 15:25:18 GMT 54.623604 38.655396 32,600 341 391 -1856
2020-05-15 15:25:15 GMT 54.619087 38.658142 32,750 341 394 -1728
2020-05-15 15:25:11 GMT 54.611919 38.662552 32,775 341 394 -1728
2020-05-15 15:25:08 GMT 54.606522 38.665882 32,900 341 396 -1600
2020-05-15 15:25:05 GMT 54.601227 38.669048 33,000 341 400 -1664
2020-05-15 15:25:01 GMT 54.593533 38.673790 33,100 341 401 -1664
2020-05-15 15:24:58 GMT 54.585945 38.678452 33,225 341 404 -1664
2020-05-15 15:24:52 GMT 54.577972 38.683346 33,350 341 405 -1920
2020-05-15 15:24:48 GMT 54.572800 38.686497 33,425 341 405 -1984
2020-05-15 15:24:45 GMT 54.567650 38.689686 33,625 341 406 -1344
2020-05-15 15:24:42 GMT 54.560341 38.694180 33,825 341 406 -960
2020-05-15 15:24:33 GMT 54.546280 38.702835 33,825 341 406 -960
2020-05-15 15:24:29 GMT 54.537575 38.708164 33,925 341 406 -640
2020-05-15 15:24:24 GMT 54.530315 38.712574 33,950 341 406 -320
2020-05-15 15:24:21 GMT 54.522774 38.717236 33,975 341 406 -256
2020-05-15 15:24:18 GMT 54.519794 38.719067 34,000 341 407 -192
2020-05-15 15:24:15 GMT 54.513474 38.722927 34,000 341 407 -256
2020-05-15 15:24:10 GMT 54.505142 38.728020 34,000 341 407 -64
2020-05-15 15:24:07 GMT 54.497864 38.732460 34,025 341 407 128
2020-05-15 15:24:04 GMT 54.493790 38.734966 34,000 341 407 192
2020-05-15 15:24:00 GMT 54.486973 38.739124 34,000 341 407 -64
2020-05-15 15:23:56 GMT 54.480377 38.743126 34,000 341 406 0
2020-05-15 15:23:52 GMT 54.473969 38.747002 34,000 341 406 -64
2020-05-15 15:23:49 GMT 54.468750 38.750233 34,000 341 406 0
2020-05-15 15:23:46 GMT 54.461414 38.754688 34,000 341 406 0
2020-05-15 15:23:43 GMT 54.458111 38.756687 34,000 341 406 -64
2020-05-15 15:23:38 GMT 54.447636 38.763096 34,000 341 406 0
2020-05-15 15:23:34 GMT 54.440186 38.767601 34,000 341 406 0
2020-05-15 15:23:29 GMT 54.433483 38.771667 34,000 341 406 0
2020-05-15 15:23:26 GMT 54.428318 38.774830 34,000 341 406 0
2020-05-15 15:23:23 GMT 54.421829 38.778831 34,000 341 406 0
2020-05-15 15:23:19 GMT 54.414261 38.783401 34,000 341 406 0
2020-05-15 15:23:16 GMT 54.403645 38.789894 34,000 341 407 128
2020-05-15 15:23:13 GMT 54.403645 38.789894 34,000 341 406 192
2020-05-15 15:23:10 GMT 54.392761 38.796440 34,000 341 406 0
2020-05-15 15:23:06 GMT 54.392761 38.796440 34,000 341 406 0
2020-05-15 15:23:02 GMT 54.383423 38.802177 34,000 341 407 0
2020-05-15 15:22:59 GMT 54.379807 38.804356 34,000 341 406 -64
2020-05-15 15:22:54 GMT 54.368683 38.811142 34,000 341 407 64
2020-05-15 15:22:49 GMT 54.361515 38.815445 34,000 341 407 -64
2020-05-15 15:22:45 GMT 54.355270 38.819221 34,000 341 407 128
2020-05-15 15:22:42 GMT 54.349037 38.823021 34,000 341 407 -192
2020-05-15 15:22:39 GMT 54.343689 38.826248 34,025 341 407 64
2020-05-15 15:22:36 GMT 54.336796 38.830429 34,000 341 409 -64
2020-05-15 15:22:30 GMT 54.327812 38.835922 34,025 341 407 64
2020-05-15 15:22:25 GMT 54.319061 38.841164 34,000 341 409 -64
2020-05-15 15:22:22 GMT 54.312122 38.845409 34,025 341 407 0
2020-05-15 15:22:18 GMT 54.306931 38.848545 34,025 341 407 0
2020-05-15 15:22:14 GMT 54.299423 38.853069 34,025 341 407 0
2020-05-15 15:22:11 GMT 54.294060 38.856312 34,025 341 407 64
2020-05-15 15:22:08 GMT 54.289406 38.859142 34,000 341 408 64
2020-05-15 15:22:04 GMT 54.280655 38.864380 34,000 341 409 -64
2020-05-15 15:22:01 GMT 54.275349 38.867607 34,000 341 408 64
2020-05-15 15:21:57 GMT 54.269669 38.871002 34,000 341 409 64
2020-05-15 15:21:54 GMT 54.264587 38.874104 34,000 341 409 -64
2020-05-15 15:21:51 GMT 54.257538 38.878338 34,000 341 409 0
2020-05-15 15:21:47 GMT 54.252117 38.881584 34,000 341 409 0
2020-05-15 15:21:43 GMT 54.245789 38.885464 34,000 341 409 0
2020-05-15 15:21:40 GMT 54.232086 38.893719 34,000 341 409 -64
2020-05-15 15:21:37 GMT 54.232086 38.893719 34,000 341 409 0
2020-05-15 15:21:29 GMT 54.219955 38.901016 34,000 341 409 0
2020-05-15 15:21:26 GMT 54.202194 38.911690 34,000 341 409 0
2020-05-15 15:21:19 GMT 54.202194 38.911690 34,000 341 409 0
2020-05-15 15:21:16 GMT 54.194870 38.916084 34,000 341 409 0
2020-05-15 15:21:10 GMT 54.184525 38.922363 34,000 341 408 0
2020-05-15 15:21:06 GMT 54.172302 38.929661 34,000 341 408 64
2020-05-15 15:21:03 GMT 54.172302 38.929661 34,000 341 408 64
2020-05-15 15:20:56 GMT 54.161179 38.936333 34,000 341 407 -64
2020-05-15 15:20:52 GMT 54.153488 38.941040 34,000 341 407 0
2020-05-15 15:20:49 GMT 54.148258 38.944191 34,000 341 406 -64
2020-05-15 15:20:46 GMT 54.142548 38.947552 34,000 341 405 -64
2020-05-15 15:20:42 GMT 54.135086 38.952106 34,000 341 405 -64
2020-05-15 15:20:38 GMT 54.128242 38.956226 34,000 341 404 -64
2020-05-15 15:20:34 GMT 54.121124 38.960503 34,025 341 401 0
2020-05-15 15:20:31 GMT 54.116791 38.963093 34,025 341 402 0
2020-05-15 15:20:25 GMT 54.107155 38.968910 34,025 341 401 64
2020-05-15 15:20:19 GMT 54.093887 38.976826 34,000 341 401 0
2020-05-15 15:20:15 GMT 54.089676 38.979336 34,000 341 401 64
2020-05-15 15:20:06 GMT 54.072102 38.989914 34,000 341 402 -64
2020-05-15 15:20:02 GMT 54.066788 38.993069 34,000 341 402 -64
2020-05-15 15:19:58 GMT 54.056992 38.998875 34,000 341 403 -64
2020-05-15 15:19:55 GMT 54.053528 39.000980 34,000 341 403 0
2020-05-15 15:19:49 GMT 54.039513 39.009300 34,000 341 403 64
2020-05-15 15:19:45 GMT 54.036026 39.011433 34,000 341 403 64
2020-05-15 15:19:34 GMT 54.016518 39.023033 34,000 341 404 -64
2020-05-15 15:19:27 GMT 54.002197 39.031521 34,025 341 405 64
2020-05-15 15:19:24 GMT 53.998734 39.033615 34,025 341 405 64
2020-05-15 15:19:16 GMT 53.984344 39.042114 34,000 341 406 0
2020-05-15 15:19:06 GMT 53.966846 39.052521 34,000 341 406 0
2020-05-15 15:19:03 GMT 53.963306 39.054619 34,000 341 406 0
2020-05-15 15:19:00 GMT 53.955021 39.059467 34,000 341 406 0
2020-05-15 15:18:56 GMT 53.947666 39.063747 34,000 341 406 64
2020-05-15 15:18:50 GMT 53.939568 39.068516 34,000 341 406 64
2020-05-15 15:18:42 GMT 53.925552 39.076756 34,000 342 407 0
2020-05-15 15:18:39 GMT 53.920166 39.079861 34,000 342 406 0
2020-05-15 15:18:35 GMT 53.912285 39.084427 34,000 342 407 0
2020-05-15 15:18:29 GMT 53.900230 39.091373 34,000 342 406 0
2020-05-15 15:18:24 GMT 53.892921 39.095657 34,000 342 406 0
2020-05-15 15:18:17 GMT 53.881393 39.102226 34,000 342 406 -128
2020-05-15 15:18:13 GMT 53.873367 39.106804 33,000 343 405 -64
2020-05-15 15:18:08 GMT 53.862755 39.112701 34,000 342 406 0
2020-05-15 15:18:04 GMT 53.857586 39.115528 34,000 343 405 128
2020-05-15 15:17:56 GMT 53.843994 39.122959 34,000 343 406 64
2020-05-15 15:17:52 GMT 53.825092 39.132977 34,000 343 406 128
2020-05-15 15:17:47 GMT 53.825092 39.132977 34,000 343 405 -64
2020-05-15 15:17:43 GMT 53.818668 39.136372 34,000 343 405 -64
2020-05-15 15:17:35 GMT 53.806614 39.142670 34,000 343 405 0
2020-05-15 15:17:32 GMT 53.801071 39.145580 34,000 343 405 -128
2020-05-15 15:17:22 GMT 53.765030 39.164455 33,000 343 410 0
2020-05-15 15:17:13 GMT 53.765030 39.164455 34,000 343 407 0
2020-05-15 15:17:01 GMT 53.745438 39.174656 34,000 343 409 -64
2020-05-15 15:16:52 GMT 53.727722 39.183838 34,025 343 410 0
2020-05-15 15:16:40 GMT 53.706341 39.195019 34,025 343 410 0
2020-05-15 15:16:31 GMT 53.689255 39.203823 34,025 343 411 128
2020-05-15 15:16:19 GMT 53.669952 39.213894 34,000 343 412 -64
2020-05-15 15:16:09 GMT 53.649765 39.224331 34,000 343 413 128
2020-05-15 15:15:58 GMT 53.631500 39.233826 34,000 343 413 0
2020-05-15 15:15:48 GMT 53.612366 39.243793 34,000 343 413 -64
2020-05-15 15:15:43 GMT 53.603645 39.248333 34,000 343 413 -128
2020-05-15 15:15:37 GMT 53.593002 39.253838 34,000 343 412 -64
2020-05-15 15:15:33 GMT 53.585537 39.257706 34,000 343 411 -64
2020-05-15 15:15:26 GMT 53.570343 39.265610 34,000 343 410 0
2020-05-15 15:15:23 GMT 53.567734 39.267021 34,000 343 409 64
2020-05-15 15:15:15 GMT 53.552856 39.274712 34,000 343 408 128
2020-05-15 15:15:09 GMT 53.542290 39.280163 34,000 343 408 -64
2020-05-15 15:15:06 GMT 53.536003 39.283394 34,000 343 408 0
2020-05-15 15:14:59 GMT 53.523903 39.289616 34,000 343 408 0
2020-05-15 15:14:56 GMT 53.516220 39.293652 34,000 343 408 0
2020-05-15 15:14:51 GMT 53.507767 39.298016 34,000 343 409 0
2020-05-15 15:14:44 GMT 53.497375 39.303352 34,000 343 409 0
2020-05-15 15:14:41 GMT 53.491314 39.306496 34,000 343 409 -64
2020-05-15 15:14:38 GMT 53.486706 39.308842 34,000 343 409 -64
2020-05-15 15:14:35 GMT 53.478374 39.313122 34,000 343 409 64
2020-05-15 15:14:28 GMT 53.468830 39.318050 34,000 343 409 64
2020-05-15 15:14:23 GMT 53.459518 39.322815 34,000 343 409 64
2020-05-15 15:14:12 GMT 53.437359 39.334206 34,000 343 411 -64
2020-05-15 15:14:07 GMT 53.430656 39.337681 34,000 344 410 0
2020-05-15 15:14:02 GMT 53.420925 39.342686 34,000 343 411 128
2020-05-15 15:13:56 GMT 53.402538 39.352058 34,000 343 412 0
2020-05-15 15:13:53 GMT 53.402538 39.352058 34,000 343 412 -64
2020-05-15 15:13:44 GMT 53.387409 39.359894 34,000 343 412 64
2020-05-15 15:13:41 GMT 53.378906 39.364250 34,000 343 412 64
2020-05-15 15:13:34 GMT 53.369705 39.368958 34,000 343 413 -64
2020-05-15 15:13:30 GMT 53.361526 39.373142 34,000 343 413 0
2020-05-15 15:13:23 GMT 53.349468 39.379280 34,000 343 413 -64
2020-05-15 15:13:18 GMT 53.340904 39.383644 34,000 343 413 0
2020-05-15 15:13:12 GMT 53.329639 39.389462 34,000 343 413 0
2020-05-15 15:13:09 GMT 53.322189 39.393208 34,000 343 413 0
2020-05-15 15:13:02 GMT 53.310970 39.398991 34,000 343 413 64
2020-05-15 15:12:57 GMT 53.299347 39.404900 34,000 344 414 0
2020-05-15 15:12:51 GMT 53.290787 39.409294 34,000 344 414 0
2020-05-15 15:12:47 GMT 53.283787 39.412807 34,000 344 414 0
2020-05-15 15:12:41 GMT 53.272659 39.418472 34,000 344 414 64
2020-05-15 15:12:34 GMT 53.259624 39.425167 34,000 344 414 -64
2020-05-15 15:12:29 GMT 53.251339 39.429367 34,000 344 414 -64
2020-05-15 15:12:26 GMT 53.245472 39.432354 34,000 344 414 0
2020-05-15 15:12:16 GMT 53.226334 39.442097 34,000 344 414 64
2020-05-15 15:12:05 GMT 53.207672 39.451660 34,000 343 413 0
2020-05-15 15:11:58 GMT 53.194077 39.458527 34,000 344 411 0
2020-05-15 15:11:55 GMT 53.189484 39.460850 34,000 344 411 -64
2020-05-15 15:11:45 GMT 53.171219 39.470112 34,000 344 410 0
2020-05-15 15:11:35 GMT 53.153275 39.479294 34,000 344 410 0
2020-05-15 15:11:26 GMT 53.135654 39.488174 34,000 344 410 0
2020-05-15 15:11:15 GMT 53.116291 39.497952 34,000 344 410 0
2020-05-15 15:11:05 GMT 53.098434 39.507072 34,000 344 411 0
2020-05-15 15:10:54 GMT 53.078842 39.516907 34,000 344 411 0
2020-05-15 15:10:43 GMT 53.058975 39.526978 34,000 344 411 -64
2020-05-15 15:10:34 GMT 53.041718 39.535751 34,000 344 411 0
2020-05-15 15:10:22 GMT 53.021439 39.545975 34,000 344 410 0
2020-05-15 15:10:13 GMT 53.003540 39.555054 34,000 344 409 0
2020-05-15 15:10:02 GMT 52.983570 39.565144 34,000 344 409 0
2020-05-15 15:09:53 GMT 52.967461 39.573223 34,000 344 409 0
2020-05-15 15:09:50 GMT 52.962753 39.575577 34,000 344 409 0
2020-05-15 15:09:43 GMT 52.949215 39.582405 34,000 344 409 0
2020-05-15 15:09:40 GMT 52.944698 39.584682 34,000 344 409 0
2020-05-15 15:09:30 GMT 52.925842 39.594097 34,000 344 409 0
2020-05-15 15:09:22 GMT 52.911026 39.601593 34,000 344 409 0
2020-05-15 15:09:19 GMT 52.906036 39.604034 34,000 344 409 64
2020-05-15 15:09:12 GMT 52.893951 39.610138 34,000 344 409 0
2020-05-15 15:09:09 GMT 52.888325 39.612930 34,000 344 409 0
2020-05-15 15:09:01 GMT 52.874313 39.619980 34,000 344 410 0
2020-05-15 15:08:58 GMT 52.868637 39.622803 34,000 344 410 0
2020-05-15 15:08:51 GMT 52.855736 39.629253 34,000 344 410 0
2020-05-15 15:08:48 GMT 52.849964 39.632160 34,000 344 410 0
2020-05-15 15:08:42 GMT 52.838421 39.637886 34,000 344 411 0
2020-05-15 15:08:37 GMT 52.830879 39.641655 34,000 344 411 -64
2020-05-15 15:08:31 GMT 52.819427 39.647369 34,000 344 412 0
2020-05-15 15:08:27 GMT 52.812073 39.650993 34,000 344 412 0
2020-05-15 15:08:22 GMT 52.801117 39.656448 34,000 344 412 0
2020-05-15 15:08:17 GMT 52.793381 39.660339 34,000 344 412 64
2020-05-15 15:08:11 GMT 52.782257 39.665833 34,000 344 412 0
2020-05-15 15:08:05 GMT 52.772781 39.670612 34,000 344 412 64
2020-05-15 15:08:01 GMT 52.763935 39.675007 34,000 344 412 0
2020-05-15 15:07:55 GMT 52.754486 39.679714 34,000 344 412 0
2020-05-15 15:07:50 GMT 52.744995 39.684372 34,000 344 412 -64
2020-05-15 15:07:45 GMT 52.735306 39.689209 34,000 344 412 0
2020-05-15 15:07:40 GMT 52.726833 39.693447 34,000 344 412 -64
2020-05-15 15:07:31 GMT 52.708511 39.702530 34,025 344 412 0
2020-05-15 15:07:20 GMT 52.688873 39.712296 34,000 344 412 -64
2020-05-15 15:07:10 GMT 52.671528 39.720833 34,025 344 413 64
2020-05-15 15:07:00 GMT 52.652584 39.730171 34,000 344 414 64
2020-05-15 15:06:49 GMT 52.633450 39.739670 34,000 344 416 -64
2020-05-15 15:06:38 GMT 52.613663 39.749374 34,000 344 416 0
2020-05-15 15:06:29 GMT 52.596161 39.758030 34,000 344 417 64
2020-05-15 15:06:26 GMT 52.591553 39.760307 34,000 344 417 -64
2020-05-15 15:06:16 GMT 52.572327 39.769802 34,000 344 417 -64
2020-05-15 15:06:08 GMT 52.558220 39.776707 34,025 344 416 64
2020-05-15 15:06:05 GMT 52.552448 39.779533 34,025 344 415 128
2020-05-15 15:05:58 GMT 52.540237 39.785614 34,000 344 415 -64
2020-05-15 15:05:55 GMT 52.533508 39.788895 34,000 344 414 0
2020-05-15 15:05:49 GMT 52.521072 39.794991 34,000 344 414 0
2020-05-15 15:05:44 GMT 52.514008 39.798508 34,000 344 414 0
2020-05-15 15:05:38 GMT 52.502289 39.804230 34,000 344 414 64
2020-05-15 15:05:34 GMT 52.494827 39.807892 34,000 344 414 -64
2020-05-15 15:05:28 GMT 52.482147 39.814148 34,000 344 413 -64
2020-05-15 15:05:22 GMT 52.473869 39.818218 34,000 344 412 -128
2020-05-15 15:05:16 GMT 52.463020 39.823555 34,000 344 411 -128
2020-05-15 15:05:12 GMT 52.455093 39.827423 34,025 344 410 0
2020-05-15 15:05:07 GMT 52.444794 39.832535 34,025 344 409 192
2020-05-15 15:05:01 GMT 52.436050 39.836807 34,000 344 408 64
2020-05-15 15:04:56 GMT 52.426617 39.841450 34,000 344 408 64
2020-05-15 15:04:50 GMT 52.415451 39.846878 34,000 344 408 64
2020-05-15 15:04:47 GMT 52.408558 39.850239 34,000 344 408 0
2020-05-15 15:04:40 GMT 52.396774 39.856033 34,000 344 408 0
2020-05-15 15:04:36 GMT 52.389423 39.859653 34,000 344 408 -64
2020-05-15 15:04:29 GMT 52.377365 39.865570 34,000 344 408 0
2020-05-15 15:04:26 GMT 52.371277 39.868546 34,000 344 407 0
2020-05-15 15:04:18 GMT 52.358368 39.874878 34,000 344 407 -64
2020-05-15 15:04:15 GMT 52.353287 39.877319 34,000 344 407 -64
2020-05-15 15:04:08 GMT 52.339645 39.884033 34,000 344 405 -64
2020-05-15 15:04:05 GMT 52.334446 39.886570 34,000 344 404 -64
2020-05-15 15:03:56 GMT 52.314289 39.896381 34,025 344 404 128
2020-05-15 15:03:47 GMT 52.301907 39.902424 34,000 344 404 0
2020-05-15 15:03:44 GMT 52.296295 39.905167 34,000 344 404 -64
2020-05-15 15:03:34 GMT 52.278580 39.913788 34,000 344 403 64
2020-05-15 15:03:26 GMT 52.265408 39.920158 34,000 344 404 0
2020-05-15 15:03:23 GMT 52.259995 39.922791 34,000 344 404 -64
2020-05-15 15:03:16 GMT 52.242004 39.931564 34,000 344 403 0
2020-05-15 15:03:04 GMT 52.222733 39.940948 34,000 344 402 0
2020-05-15 15:02:53 GMT 52.205109 39.949493 34,000 344 402 0
2020-05-15 15:02:43 GMT 52.187393 39.958038 34,000 344 402 0
2020-05-15 15:02:32 GMT 52.168808 39.967041 34,000 344 403 64
2020-05-15 15:02:23 GMT 52.151367 39.975433 34,000 344 404 -64
2020-05-15 15:02:13 GMT 52.132553 39.984512 34,000 344 405 -64
2020-05-15 15:02:02 GMT 52.114067 39.993450 34,000 344 404 64
2020-05-15 15:01:52 GMT 52.095703 40.002289 34,000 344 404 0
2020-05-15 15:01:42 GMT 52.077255 40.011215 34,000 344 404 -64
2020-05-15 15:01:31 GMT 52.059448 40.019760 34,000 344 404 64
2020-05-15 15:01:20 GMT 52.040375 40.028923 34,000 344 404 0
2020-05-15 15:01:11 GMT 52.022404 40.037556 34,000 344 404 -64
2020-05-15 15:01:00 GMT 52.003597 40.046577 34,000 344 405 -64
2020-05-15 15:00:50 GMT 51.985443 40.055290 34,000 344 405 0
2020-05-15 15:00:40 GMT 51.967392 40.063934 34,000 344 405 -128
2020-05-15 15:00:29 GMT 51.948528 40.072945 34,000 344 406 0
2020-05-15 15:00:19 GMT 51.929440 40.082127 34,025 344 405 64
2020-05-15 15:00:07 GMT 51.907928 40.092392 34,000 344 406 0
2020-05-15 14:59:58 GMT 51.891632 40.100170 34,000 344 406 64
2020-05-15 14:59:49 GMT 51.875301 40.107956 34,000 344 405 0
2020-05-15 14:59:37 GMT 51.854214 40.118027 34,000 344 405 0
2020-05-15 14:59:29 GMT 51.835403 40.127029 34,000 344 404 -64
2020-05-15 14:59:18 GMT 51.820450 40.134094 34,000 344 402 64
2020-05-15 14:59:08 GMT 51.802586 40.142670 34,000 344 401 0
2020-05-15 14:59:05 GMT 51.797470 40.145081 34,000 344 400 0
2020-05-15 14:58:58 GMT 51.784882 40.151096 34,000 344 399 64
2020-05-15 14:58:55 GMT 51.779682 40.153580 34,025 344 399 128
2020-05-15 14:58:48 GMT 51.766434 40.159855 34,000 344 400 64
2020-05-15 14:58:44 GMT 51.761215 40.162376 34,000 344 400 0
2020-05-15 14:58:38 GMT 51.748631 40.168304 34,000 344 401 -64
2020-05-15 14:58:34 GMT 51.743225 40.170914 34,000 344 401 -128
2020-05-15 14:58:28 GMT 51.729584 40.177372 34,025 344 402 -64
2020-05-15 14:58:24 GMT 51.724182 40.179897 34,025 344 402 128
2020-05-15 14:58:17 GMT 51.710178 40.186539 34,025 344 402 64
2020-05-15 14:58:13 GMT 51.705616 40.188675 34,025 344 402 128
2020-05-15 14:58:06 GMT 51.691818 40.195190 34,000 344 403 64
2020-05-15 14:58:03 GMT 51.687286 40.197342 34,000 344 404 0
2020-05-15 14:57:53 GMT 51.669250 40.205803 34,025 344 406 128
2020-05-15 14:57:46 GMT 51.655479 40.212250 34,000 344 407 192
2020-05-15 14:57:43 GMT 51.650482 40.214561 34,000 344 408 64
2020-05-15 14:57:36 GMT 51.636673 40.221024 34,000 344 409 64
2020-05-15 14:57:32 GMT 51.631180 40.223618 34,000 344 409 -64
2020-05-15 14:57:25 GMT 51.618099 40.229721 34,000 344 410 -128
2020-05-15 14:57:20 GMT 51.609394 40.233765 34,025 344 410 320
2020-05-15 14:57:15 GMT 51.600128 40.238022 34,000 344 410 -64
2020-05-15 14:57:09 GMT 51.590515 40.242550 34,000 344 410 -64
2020-05-15 14:57:05 GMT 51.581406 40.246780 34,000 344 408 128
2020-05-15 14:56:59 GMT 51.571381 40.251381 34,000 345 407 -128
2020-05-15 14:56:55 GMT 51.563324 40.255093 34,025 345 407 256
2020-05-15 14:56:48 GMT 51.552338 40.260143 34,000 345 408 -384
2020-05-15 14:56:45 GMT 51.544220 40.263824 34,000 345 408 192
2020-05-15 14:56:38 GMT 51.533615 40.268604 34,000 345 408 128
2020-05-15 14:56:34 GMT 51.525181 40.272369 34,000 345 408 -192
2020-05-15 14:56:28 GMT 51.514481 40.277142 34,000 345 409 0
2020-05-15 14:56:24 GMT 51.506699 40.280533 34,000 345 410 0
2020-05-15 14:56:17 GMT 51.494659 40.285900 34,000 345 411 128
2020-05-15 14:56:14 GMT 51.486633 40.289459 34,000 345 411 -64
2020-05-15 14:56:06 GMT 51.474701 40.294807 34,000 345 411 0
2020-05-15 14:56:02 GMT 51.468201 40.297703 34,000 345 411 -192
2020-05-15 14:55:56 GMT 51.455956 40.303192 34,000 345 411 64
2020-05-15 14:55:53 GMT 51.449905 40.305939 34,000 345 411 0
2020-05-15 14:55:45 GMT 51.435799 40.312271 34,000 345 410 -64
2020-05-15 14:55:42 GMT 51.430679 40.314560 34,025 345 410 0
2020-05-15 14:55:35 GMT 51.417755 40.320271 34,000 345 409 128
2020-05-15 14:55:32 GMT 51.412354 40.322720 34,000 345 409 64
2020-05-15 14:55:22 GMT 51.393906 40.330959 34,000 345 409 0
2020-05-15 14:55:11 GMT 51.374630 40.339508 34,000 345 407 0
2020-05-15 14:55:02 GMT 51.356827 40.347439 34,000 345 407 -128
2020-05-15 14:54:51 GMT 51.338646 40.355530 34,025 345 406 64
2020-05-15 14:54:41 GMT 51.319557 40.363998 34,025 345 406 64
2020-05-15 14:54:30 GMT 51.300888 40.372231 34,000 345 406 64
2020-05-15 14:54:20 GMT 51.281757 40.380707 34,000 345 407 0
2020-05-15 14:54:09 GMT 51.263138 40.388947 34,000 345 407 0
2020-05-15 14:53:58 GMT 51.243214 40.397720 34,000 345 407 64
2020-05-15 14:53:48 GMT 51.224625 40.405933 34,000 345 407 0
2020-05-15 14:53:40 GMT 51.208557 40.413059 34,000 345 407 0
2020-05-15 14:53:37 GMT 51.204666 40.414734 34,000 345 407 0
2020-05-15 14:53:30 GMT 51.190521 40.421001 34,000 345 406 0
2020-05-15 14:53:26 GMT 51.184753 40.423527 34,000 345 406 64
2020-05-15 14:53:20 GMT 51.171803 40.429230 34,000 345 405 0
2020-05-15 14:53:16 GMT 51.166443 40.431618 34,000 345 405 -64
2020-05-15 14:53:09 GMT 51.153488 40.437332 34,000 345 405 -64
2020-05-15 14:53:05 GMT 51.146755 40.440292 34,000 345 405 64
2020-05-15 14:52:59 GMT 51.134720 40.445572 34,000 345 405 0
2020-05-15 14:52:55 GMT 51.127899 40.448544 34,000 345 405 -64
2020-05-15 14:52:49 GMT 51.116867 40.453442 34,025 345 405 64
2020-05-15 14:52:44 GMT 51.107887 40.457382 34,000 345 405 64
2020-05-15 14:52:38 GMT 51.098190 40.461681 34,000 345 405 -64
2020-05-15 14:52:34 GMT 51.089870 40.465317 34,000 345 405 64
2020-05-15 14:52:29 GMT 51.079678 40.469742 34,000 345 406 64
2020-05-15 14:52:22 GMT 51.069248 40.474396 34,000 345 406 0
2020-05-15 14:52:18 GMT 51.061054 40.477982 34,000 345 406 64
2020-05-15 14:52:08 GMT 51.042759 40.485992 34,000 345 406 -64
2020-05-15 14:51:58 GMT 51.024509 40.493927 34,000 345 405 0
2020-05-15 14:51:48 GMT 51.006592 40.501842 34,000 345 404 -256
2020-05-15 14:51:41 GMT 50.995415 40.506668 34,000 345 404 -128
2020-05-15 14:51:37 GMT 50.987411 40.510155 34,025 345 404 64
2020-05-15 14:51:30 GMT 50.974655 40.515747 34,000 345 403 -64
2020-05-15 14:51:27 GMT 50.969193 40.518173 34,000 345 403 64
2020-05-15 14:51:17 GMT 50.951424 40.525894 34,000 345 403 64
2020-05-15 14:51:07 GMT 50.933037 40.533905 34,000 345 404 64
2020-05-15 14:50:56 GMT 50.914230 40.542068 34,000 345 404 64
2020-05-15 14:50:47 GMT 50.895401 40.550316 34,000 345 404 0
2020-05-15 14:50:35 GMT 50.875500 40.559006 34,000 345 403 0
2020-05-15 14:50:24 GMT 50.856735 40.567245 34,000 345 403 0
2020-05-15 14:50:14 GMT 50.838070 40.575485 34,000 345 403 64
2020-05-15 14:50:04 GMT 50.820053 40.583496 34,025 345 402 0
2020-05-15 14:49:53 GMT 50.800968 40.592041 34,000 344 401 0
2020-05-15 14:49:43 GMT 50.782562 40.600494 34,000 344 401 0
2020-05-15 14:49:32 GMT 50.764206 40.609329 34,000 343 401 -64
2020-05-15 14:49:25 GMT 50.750458 40.616302 34,000 342 400 -128
2020-05-15 14:49:22 GMT 50.745895 40.618668 34,000 342 400 -128
2020-05-15 14:49:12 GMT 50.727741 40.628052 34,025 342 400 64
2020-05-15 14:49:05 GMT 50.714493 40.634865 34,000 342 400 0
2020-05-15 14:49:01 GMT 50.709446 40.637512 34,000 342 401 0
2020-05-15 14:48:54 GMT 50.696037 40.644455 34,000 342 400 64
2020-05-15 14:48:50 GMT 50.690598 40.647263 34,000 342 400 0
2020-05-15 14:48:44 GMT 50.678440 40.653534 34,025 342 401 64
2020-05-15 14:48:40 GMT 50.672157 40.656815 34,000 342 402 -64
2020-05-15 14:48:34 GMT 50.660248 40.662930 34,000 342 401 -256
2020-05-15 14:48:29 GMT 50.653427 40.666473 34,025 342 402 192
2020-05-15 14:48:23 GMT 50.641899 40.672424 34,000 342 403 -64
2020-05-15 14:48:18 GMT 50.633797 40.676582 34,000 342 402 64
2020-05-15 14:48:14 GMT 50.625000 40.681145 34,025 342 402 64
2020-05-15 14:48:09 GMT 50.617035 40.685265 34,000 342 402 -128
2020-05-15 14:48:03 GMT 50.605682 40.691132 34,025 342 402 0
2020-05-15 14:47:58 GMT 50.598450 40.694805 34,000 342 402 0
2020-05-15 14:47:53 GMT 50.588562 40.699936 34,000 342 402 64
2020-05-15 14:47:48 GMT 50.580589 40.704048 34,025 342 402 0
2020-05-15 14:47:42 GMT 50.569649 40.709690 34,000 342 403 -256
2020-05-15 14:47:36 GMT 50.559593 40.714813 34,025 342 404 128
2020-05-15 14:47:32 GMT 50.552124 40.718658 34,000 342 405 0
2020-05-15 14:47:27 GMT 50.543289 40.723209 34,000 342 405 64
2020-05-15 14:47:23 GMT 50.533859 40.727982 34,000 342 406 64
2020-05-15 14:47:15 GMT 50.521774 40.734196 34,000 342 406 0
2020-05-15 14:47:12 GMT 50.516163 40.737083 34,000 342 406 -64
2020-05-15 14:47:05 GMT 50.504059 40.743305 34,000 342 405 0
2020-05-15 14:47:02 GMT 50.497559 40.746628 34,000 342 405 -64
2020-05-15 14:46:55 GMT 50.485428 40.752846 34,000 342 404 -64
2020-05-15 14:46:52 GMT 50.479477 40.755936 34,000 342 404 64
2020-05-15 14:46:42 GMT 50.462173 40.764843 34,000 342 403 -128
2020-05-15 14:46:32 GMT 50.442719 40.774818 34,025 342 403 0
2020-05-15 14:46:21 GMT 50.425850 40.783401 34,000 342 402 0
2020-05-15 14:46:11 GMT 50.407974 40.792526 34,000 342 402 64
2020-05-15 14:46:00 GMT 50.389389 40.802067 34,000 342 403 0
2020-05-15 14:45:50 GMT 50.371582 40.811172 34,000 342 403 0
2020-05-15 14:45:41 GMT 50.352715 40.820740 34,000 342 406 0
2020-05-15 14:45:29 GMT 50.332581 40.830978 34,000 342 406 0
2020-05-15 14:45:19 GMT 50.314308 40.840263 34,000 342 406 0
2020-05-15 14:45:08 GMT 50.295597 40.849838 34,000 342 406 -64
2020-05-15 14:44:59 GMT 50.280418 40.857487 34,000 342 405 64
2020-05-15 14:44:56 GMT 50.274227 40.860680 34,000 342 405 0
2020-05-15 14:44:48 GMT 50.259193 40.868324 34,000 342 403 128
2020-05-15 14:44:39 GMT 50.244389 40.875820 34,025 342 403 64
2020-05-15 14:44:36 GMT 50.239609 40.878246 34,000 342 403 0
2020-05-15 14:44:29 GMT 50.226467 40.884953 34,000 342 403 -64
2020-05-15 14:44:25 GMT 50.219376 40.888512 34,000 342 403 0
2020-05-15 14:44:17 GMT 50.204494 40.896011 34,000 342 403 0
2020-05-15 14:44:14 GMT 50.201096 40.897793 34,000 342 403 0
2020-05-15 14:44:06 GMT 50.180740 40.908028 34,000 343 404 -64
2020-05-15 14:43:59 GMT 50.171677 40.912651 34,025 343 404 128
2020-05-15 14:43:56 GMT 50.167282 40.914894 34,000 343 404 64
2020-05-15 14:43:53 GMT 50.162933 40.917061 34,000 343 404 -64
2020-05-15 14:43:48 GMT 50.153332 40.921921 34,000 343 405 0
2020-05-15 14:43:45 GMT 50.149654 40.923775 34,000 343 405 64
2020-05-15 14:43:42 GMT 50.143185 40.927040 34,000 343 405 64
2020-05-15 14:43:36 GMT 50.130707 40.933323 34,000 343 406 -192
2020-05-15 14:43:32 GMT 50.125214 40.936096 34,025 343 406 0
2020-05-15 14:43:25 GMT 50.112442 40.942505 34,000 343 406 64
2020-05-15 14:43:21 GMT 50.106503 40.945526 34,000 343 406 -128
2020-05-15 14:43:15 GMT 50.094635 40.951538 34,000 342 406 64
2020-05-15 14:43:08 GMT 50.080853 40.958443 34,000 343 407 -256
2020-05-15 14:43:04 GMT 50.075455 40.961151 34,000 343 407 256
2020-05-15 14:43:00 GMT 50.067909 40.964973 33,975 343 407 -256
2020-05-15 14:42:54 GMT 50.057484 40.970169 34,000 342 406 -64
2020-05-15 14:42:50 GMT 50.050003 40.973946 34,000 343 406 -64
2020-05-15 14:42:47 GMT 50.044693 40.976620 34,000 343 406 -320
2020-05-15 14:42:44 GMT 50.038906 40.979523 34,000 343 406 -128
2020-05-15 14:42:37 GMT 50.026291 40.985870 34,025 343 405 0
2020-05-15 14:42:33 GMT 50.020752 40.988689 34,025 343 405 128
2020-05-15 14:42:28 GMT 50.010651 40.993702 34,000 343 405 0
2020-05-15 14:42:24 GMT 50.002304 40.997940 34,000 343 405 0
2020-05-15 14:42:17 GMT 49.989441 41.004375 34,000 343 405 -64
2020-05-15 14:42:13 GMT 49.984581 41.006840 34,025 343 405 -128
2020-05-15 14:42:06 GMT 49.972000 41.013119 34,000 343 405 64
2020-05-15 14:42:03 GMT 49.965683 41.016300 34,000 343 405 -64
2020-05-15 14:41:56 GMT 49.953297 41.022503 34,025 343 406 64
2020-05-15 14:41:53 GMT 49.947899 41.025177 34,000 343 406 -64
2020-05-15 14:41:46 GMT 49.935242 41.031551 34,000 343 406 0
2020-05-15 14:41:42 GMT 49.929153 41.034588 34,000 343 406 0
2020-05-15 14:41:39 GMT 49.923203 41.037548 34,000 343 406 -128
2020-05-15 14:41:35 GMT 49.916569 41.040840 34,000 343 406 64
2020-05-15 14:41:32 GMT 49.910934 41.043659 34,025 343 406 64
2020-05-15 14:41:29 GMT 49.905167 41.046513 34,000 343 406 64
2020-05-15 14:41:26 GMT 49.898415 41.049896 34,000 343 406 -64
2020-05-15 14:41:19 GMT 49.887611 41.055313 34,000 343 406 256
2020-05-15 14:41:15 GMT 49.879700 41.059250 34,000 343 406 0
2020-05-15 14:41:11 GMT 49.871693 41.063255 34,000 343 406 0
2020-05-15 14:41:08 GMT 49.869083 41.064518 34,000 343 406 0
2020-05-15 14:41:05 GMT 49.861683 41.068230 34,000 343 406 -64
2020-05-15 14:41:01 GMT 49.855316 41.071377 34,000 343 406 -64
2020-05-15 14:40:58 GMT 49.849766 41.074169 34,000 343 406 -192
2020-05-15 14:40:54 GMT 49.843872 41.077087 34,000 343 406 64
2020-05-15 14:40:50 GMT 49.836731 41.080700 34,000 343 405 64
2020-05-15 14:40:45 GMT 49.826534 41.085751 34,000 343 405 -64
2020-05-15 14:40:39 GMT 49.814575 41.091686 34,000 343 405 64
2020-05-15 14:40:35 GMT 49.807205 41.095371 34,025 343 404 0
2020-05-15 14:40:30 GMT 49.800385 41.098770 34,025 343 405 0
2020-05-15 14:40:27 GMT 49.795303 41.101299 34,025 343 405 128
2020-05-15 14:40:22 GMT 49.786316 41.105717 34,000 343 405 0
2020-05-15 14:40:18 GMT 49.778728 41.109505 34,000 343 405 64
2020-05-15 14:40:14 GMT 49.771278 41.113140 34,000 343 405 -64
2020-05-15 14:40:07 GMT 49.760284 41.118645 34,000 343 405 64
2020-05-15 14:40:03 GMT 49.752377 41.122494 34,000 343 405 64
2020-05-15 14:40:00 GMT 49.745396 41.125984 34,000 343 405 -64
2020-05-15 14:39:53 GMT 49.734695 41.131294 34,000 343 405 0
2020-05-15 14:39:48 GMT 49.724121 41.136524 34,000 343 405 -192
2020-05-15 14:39:44 GMT 49.716843 41.140114 34,025 343 405 128
2020-05-15 14:39:37 GMT 49.703732 41.146622 34,000 343 405 0
2020-05-15 14:39:32 GMT 49.697540 41.149662 34,000 343 405 128
2020-05-15 14:39:29 GMT 49.690338 41.153194 34,000 343 405 -64
2020-05-15 14:39:26 GMT 49.684799 41.155941 34,000 343 404 0
2020-05-15 14:39:22 GMT 49.679382 41.158646 34,000 343 404 -64
2020-05-15 14:39:17 GMT 49.669468 41.163544 34,000 343 404 0
2020-05-15 14:39:12 GMT 49.662186 41.167145 34,000 343 404 -64
2020-05-15 14:39:08 GMT 49.654221 41.171047 34,000 343 404 0
2020-05-15 14:39:05 GMT 49.649872 41.173218 34,000 343 404 64
2020-05-15 14:39:02 GMT 49.642887 41.176685 34,000 343 404 0
2020-05-15 14:38:56 GMT 49.633995 41.181065 34,000 343 404 64
2020-05-15 14:38:53 GMT 49.626663 41.184708 34,000 343 403 -64
2020-05-15 14:38:47 GMT 49.615265 41.190273 34,025 343 403 -64
2020-05-15 14:38:41 GMT 49.607300 41.194248 34,025 343 403 0
2020-05-15 14:38:35 GMT 49.596336 41.199619 34,025 343 402 192
2020-05-15 14:38:32 GMT 49.590378 41.202591 34,000 343 402 -64
2020-05-15 14:38:26 GMT 49.579605 41.207909 34,000 343 402 0
2020-05-15 14:38:22 GMT 49.572083 41.211575 34,000 343 402 0
2020-05-15 14:38:16 GMT 49.561478 41.216801 34,000 343 402 0
2020-05-15 14:38:11 GMT 49.552505 41.221210 34,000 343 402 -64
2020-05-15 14:38:06 GMT 49.543964 41.225452 34,000 343 402 -64
2020-05-15 14:38:00 GMT 49.534046 41.230278 34,025 343 401 128
2020-05-15 14:37:56 GMT 49.524364 41.235031 34,000 343 402 0
2020-05-15 14:37:51 GMT 49.517429 41.238445 34,000 343 403 -64
2020-05-15 14:37:48 GMT 49.512356 41.240894 34,025 343 402 0
2020-05-15 14:37:44 GMT 49.505047 41.244534 34,000 343 402 -64
2020-05-15 14:37:40 GMT 49.498249 41.247799 34,025 343 402 0
2020-05-15 14:37:35 GMT 49.489059 41.252289 34,025 343 402 0
2020-05-15 14:37:30 GMT 49.480141 41.256706 34,000 343 403 64
2020-05-15 14:37:27 GMT 49.474926 41.259232 34,000 343 403 64
2020-05-15 14:37:24 GMT 49.470646 41.261307 34,000 343 403 128
2020-05-15 14:37:20 GMT 49.462601 41.265228 34,000 343 405 64
2020-05-15 14:37:11 GMT 49.443787 41.274406 34,000 343 405 0
2020-05-15 14:37:04 GMT 49.434380 41.278976 34,000 343 405 -192
2020-05-15 14:37:00 GMT 49.427124 41.282536 34,000 343 406 -192
2020-05-15 14:36:54 GMT 49.416046 41.287960 34,000 343 405 128
2020-05-15 14:36:49 GMT 49.407799 41.291897 34,000 343 405 0
2020-05-15 14:36:43 GMT 49.397697 41.296886 34,000 343 405 0
2020-05-15 14:36:39 GMT 49.389496 41.300846 34,000 343 405 128
2020-05-15 14:36:34 GMT 49.380112 41.305424 34,000 343 405 -64
2020-05-15 14:36:29 GMT 49.371628 41.309605 34,025 343 404 64
2020-05-15 14:36:23 GMT 49.361481 41.314510 34,000 343 402 128
2020-05-15 14:36:20 GMT 49.354019 41.318172 34,000 343 402 0
2020-05-15 14:36:13 GMT 49.342953 41.323555 34,000 343 401 -64
2020-05-15 14:36:09 GMT 49.337036 41.326412 34,000 343 401 0
2020-05-15 14:36:03 GMT 49.324425 41.332588 34,000 343 400 -128
2020-05-15 14:35:58 GMT 49.316929 41.336277 34,025 343 398 -64
2020-05-15 14:35:53 GMT 49.300495 41.344227 34,025 343 397 64
2020-05-15 14:35:49 GMT 49.300495 41.344227 34,000 343 396 64
2020-05-15 14:35:42 GMT 49.287918 41.350357 34,000 343 396 -64
2020-05-15 14:35:39 GMT 49.283020 41.352749 34,000 343 395 64
2020-05-15 14:35:32 GMT 49.265350 41.361359 34,000 343 395 0
2020-05-15 14:35:29 GMT 49.265350 41.361359 34,000 343 395 64
2020-05-15 14:35:21 GMT 49.246403 41.370537 34,000 343 396 -128
2020-05-15 14:35:11 GMT 49.234955 41.376060 34,000 343 396 0
2020-05-15 14:35:07 GMT 49.228638 41.379162 34,000 343 396 -64
2020-05-15 14:34:58 GMT 49.211952 41.387234 34,025 343 396 -64
2020-05-15 14:34:52 GMT 49.201218 41.392471 34,000 343 396 0
2020-05-15 14:34:48 GMT 49.196220 41.394894 34,000 343 396 0
2020-05-15 14:34:42 GMT 49.184021 41.400749 34,000 343 396 -64
2020-05-15 14:34:38 GMT 49.176270 41.404514 34,000 343 396 -64
2020-05-15 14:34:30 GMT 49.162903 41.410992 34,000 343 396 0
2020-05-15 14:34:27 GMT 49.157719 41.413471 34,000 343 396 0
2020-05-15 14:34:22 GMT 49.148735 41.417732 34,000 343 396 64
2020-05-15 14:34:17 GMT 49.138550 41.422684 34,000 343 397 0
2020-05-15 14:34:14 GMT 49.135117 41.424374 34,000 343 397 0
2020-05-15 14:34:10 GMT 49.126995 41.428288 34,000 343 397 0
2020-05-15 14:34:05 GMT 49.119507 41.431908 34,000 343 397 -64
2020-05-15 14:33:59 GMT 49.109028 41.436958 34,000 343 397 0
2020-05-15 14:33:55 GMT 49.100182 41.441223 34,000 343 397 0
2020-05-15 14:33:49 GMT 49.091721 41.445290 34,000 343 396 0
2020-05-15 14:33:43 GMT 49.081970 41.449936 34,000 343 396 128
2020-05-15 14:33:39 GMT 49.073460 41.454090 34,000 343 396 0
2020-05-15 14:33:35 GMT 49.067455 41.456982 34,000 343 396 -64
2020-05-15 14:33:32 GMT 49.060593 41.460289 34,000 343 396 -128
2020-05-15 14:33:28 GMT 49.055119 41.462910 34,000 343 396 -128
2020-05-15 14:33:25 GMT 49.049835 41.465431 34,000 343 395 0
2020-05-15 14:33:22 GMT 49.043106 41.468670 34,000 343 395 64
2020-05-15 14:33:18 GMT 49.037663 41.471218 34,000 343 395 0
2020-05-15 14:33:14 GMT 49.030884 41.474514 34,000 343 395 0
2020-05-15 14:33:10 GMT 49.022251 41.478664 34,025 343 395 -64
2020-05-15 14:33:07 GMT 49.019623 41.479939 34,000 343 395 -64
2020-05-15 14:33:04 GMT 49.013687 41.482784 34,025 343 395 -64
2020-05-15 14:32:58 GMT 49.001816 41.488495 34,025 343 395 0
2020-05-15 14:32:54 GMT 48.996506 41.491066 34,025 343 395 0
2020-05-15 14:32:47 GMT 48.983475 41.497242 34,025 343 395 0
2020-05-15 14:32:44 GMT 48.979053 41.499409 34,025 343 395 64
2020-05-15 14:32:40 GMT 48.970642 41.503391 34,025 343 395 0
2020-05-15 14:32:36 GMT 48.965332 41.505924 34,000 343 395 64
2020-05-15 14:32:33 GMT 48.960014 41.508514 34,000 343 395 64
2020-05-15 14:32:29 GMT 48.952972 41.511841 34,000 343 395 0
2020-05-15 14:32:26 GMT 48.947571 41.514446 34,000 343 395 -64
2020-05-15 14:32:23 GMT 48.942169 41.517052 34,000 343 395 0
2020-05-15 14:32:17 GMT 48.930405 41.522686 34,000 343 394 64
2020-05-15 14:32:12 GMT 48.923004 41.526222 34,000 343 394 64
2020-05-15 14:32:09 GMT 48.917324 41.528900 34,000 343 393 0
2020-05-15 14:32:06 GMT 48.912186 41.531418 34,000 343 392 -64
2020-05-15 14:32:03 GMT 48.907837 41.533463 34,000 343 392 -64
2020-05-15 14:31:58 GMT 48.899960 41.537285 34,000 343 391 -64
2020-05-15 14:31:54 GMT 48.889252 41.542343 34,000 343 391 0
2020-05-15 14:31:49 GMT 48.882385 41.545647 34,000 343 389 0
2020-05-15 14:31:45 GMT 48.876984 41.548252 34,000 343 389 0
2020-05-15 14:31:38 GMT 48.865036 41.553955 34,000 343 389 64
2020-05-15 14:31:35 GMT 48.859089 41.556797 34,000 343 389 0
2020-05-15 14:31:27 GMT 48.846359 41.562901 34,000 343 389 0
2020-05-15 14:31:22 GMT 48.836464 41.567570 34,025 343 389 0
2020-05-15 14:31:15 GMT 48.819077 41.575855 34,000 343 389 64
2020-05-15 14:31:05 GMT 48.806950 41.581589 34,000 343 389 0
2020-05-15 14:30:58 GMT 48.795319 41.587124 34,000 343 389 0
2020-05-15 14:30:54 GMT 48.789120 41.590046 34,000 343 389 -64
2020-05-15 14:30:47 GMT 48.776367 41.596142 34,000 343 389 64
2020-05-15 14:30:44 GMT 48.771881 41.598251 34,025 343 389 64
2020-05-15 14:30:36 GMT 48.755882 41.605873 34,000 343 389 0
2020-05-15 14:30:33 GMT 48.753525 41.606983 34,000 343 389 -64
2020-05-15 14:30:27 GMT 48.742615 41.612164 34,000 343 389 64
2020-05-15 14:30:24 GMT 48.735630 41.615486 34,000 343 389 0
2020-05-15 14:30:16 GMT 48.724876 41.620621 34,000 343 389 0
2020-05-15 14:30:13 GMT 48.718220 41.623730 34,000 343 389 64
2020-05-15 14:30:06 GMT 48.707062 41.629028 34,000 343 388 -64
2020-05-15 14:30:03 GMT 48.700855 41.631969 34,000 343 388 0
2020-05-15 14:29:57 GMT 48.690216 41.637058 34,000 343 388 0
2020-05-15 14:29:53 GMT 48.683071 41.640423 34,000 343 388 -64
2020-05-15 14:29:46 GMT 48.672592 41.645367 34,000 343 387 0
2020-05-15 14:29:42 GMT 48.665478 41.648735 34,000 343 387 0
2020-05-15 14:29:35 GMT 48.651558 41.655388 34,000 343 387 0
2020-05-15 14:29:32 GMT 48.647827 41.657127 34,000 343 386 0
2020-05-15 14:29:25 GMT 48.637264 41.662109 34,000 343 386 0
2020-05-15 14:29:22 GMT 48.630749 41.665215 34,000 343 386 64
2020-05-15 14:29:15 GMT 48.619720 41.670368 34,000 343 386 64
2020-05-15 14:29:12 GMT 48.612827 41.673672 34,000 343 386 0
2020-05-15 14:29:05 GMT 48.602737 41.678467 34,000 343 386 -64
2020-05-15 14:29:01 GMT 48.595787 41.681694 34,000 343 386 0
2020-05-15 14:28:55 GMT 48.585545 41.686539 34,000 343 386 64
2020-05-15 14:28:50 GMT 48.577332 41.690437 34,000 343 386 64
2020-05-15 14:28:45 GMT 48.568649 41.694561 34,000 343 386 0
2020-05-15 14:28:38 GMT 48.555450 41.700790 34,000 343 386 -128
2020-05-15 14:28:34 GMT 48.550415 41.703117 34,000 343 386 -192
2020-05-15 14:28:30 GMT 48.542717 41.706776 34,025 343 386 -64
2020-05-15 14:28:27 GMT 48.538342 41.708801 34,025 343 386 0
2020-05-15 14:28:24 GMT 48.533501 41.711113 34,025 343 386 64
2020-05-15 14:28:18 GMT 48.519768 41.717617 34,000 343 386 64
2020-05-15 14:28:14 GMT 48.516403 41.719173 34,000 343 386 0
2020-05-15 14:28:09 GMT 48.507568 41.723328 34,000 343 386 0
2020-05-15 14:28:05 GMT 48.499100 41.727341 34,000 343 387 0
2020-05-15 14:28:00 GMT 48.489742 41.731712 34,000 343 387 0
2020-05-15 14:27:54 GMT 48.481842 41.735439 34,000 343 387 0
2020-05-15 14:27:48 GMT 48.471958 41.740097 34,000 343 387 0
2020-05-15 14:27:43 GMT 48.463299 41.744144 34,000 343 387 64
2020-05-15 14:27:38 GMT 48.455017 41.748047 34,000 343 387 0
2020-05-15 14:27:34 GMT 48.446548 41.751991 34,000 343 387 -64
2020-05-15 14:27:28 GMT 48.437897 41.756077 34,025 343 387 0
2020-05-15 14:27:23 GMT 48.429642 41.759899 34,025 343 387 64
2020-05-15 14:27:18 GMT 48.419262 41.764744 34,000 343 387 64
2020-05-15 14:27:14 GMT 48.411758 41.768188 34,000 343 387 0
2020-05-15 14:27:08 GMT 48.402317 41.772549 34,000 344 386 -64
2020-05-15 14:27:03 GMT 48.394775 41.776005 34,000 344 387 0
2020-05-15 14:26:57 GMT 48.384579 41.780643 34,000 344 387 64
2020-05-15 14:26:53 GMT 48.376694 41.784245 34,000 344 387 0
2020-05-15 14:26:48 GMT 48.367172 41.788471 34,000 344 387 -64
2020-05-15 14:26:43 GMT 48.359665 41.791851 34,000 344 388 -64
2020-05-15 14:26:37 GMT 48.349274 41.796288 34,000 345 388 0
2020-05-15 14:26:32 GMT 48.341858 41.799458 34,000 345 389 0
2020-05-15 14:26:27 GMT 48.331787 41.803612 34,000 346 389 0
2020-05-15 14:26:20 GMT 48.318420 41.808754 34,025 346 389 -64
2020-05-15 14:26:17 GMT 48.314163 41.810303 34,025 347 390 64
2020-05-15 14:26:12 GMT 48.306606 41.812954 34,025 348 391 64
2020-05-15 14:26:06 GMT 48.295712 41.816639 34,000 348 391 64
2020-05-15 14:26:02 GMT 48.288437 41.819107 34,000 348 391 0
2020-05-15 14:25:56 GMT 48.277836 41.822784 34,000 348 391 0
2020-05-15 14:25:52 GMT 48.270905 41.825092 34,000 348 391 0
2020-05-15 14:25:46 GMT 48.259960 41.828854 34,000 348 391 0
2020-05-15 14:25:41 GMT 48.252277 41.831455 34,000 348 391 0
2020-05-15 14:25:36 GMT 48.241573 41.835072 34,000 348 391 -64
2020-05-15 14:25:30 GMT 48.232216 41.838249 34,000 348 391 0
2020-05-15 14:25:25 GMT 48.223461 41.841213 34,000 348 391 0
2020-05-15 14:25:21 GMT 48.214523 41.844250 34,000 348 391 0
2020-05-15 14:25:15 GMT 48.205261 41.847416 34,000 348 391 0
2020-05-15 14:25:11 GMT 48.198669 41.849670 34,000 348 390 0
2020-05-15 14:25:05 GMT 48.187572 41.853428 34,000 348 390 0
2020-05-15 14:24:59 GMT 48.177841 41.856785 34,000 348 390 0
2020-05-15 14:24:55 GMT 48.169090 41.859718 34,000 348 390 64
2020-05-15 14:24:50 GMT 48.159576 41.862923 34,000 348 390 0
2020-05-15 14:24:44 GMT 48.150513 41.866013 34,000 348 390 64
2020-05-15 14:24:39 GMT 48.140881 41.869247 34,000 348 390 64
2020-05-15 14:24:33 GMT 48.132385 41.872055 34,000 348 390 64
2020-05-15 14:24:28 GMT 48.121628 41.875694 34,000 348 390 0
2020-05-15 14:24:24 GMT 48.115231 41.877838 34,000 348 390 -128
2020-05-15 14:24:18 GMT 48.104645 41.881325 34,000 348 390 -64
2020-05-15 14:24:13 GMT 48.096703 41.883896 34,000 348 388 0
2020-05-15 14:24:07 GMT 48.085342 41.887772 34,000 347 387 0
2020-05-15 14:24:03 GMT 48.078506 41.890251 34,000 346 386 0
2020-05-15 14:24:00 GMT 48.073238 41.892277 34,000 346 385 0
2020-05-15 14:23:57 GMT 48.067791 41.894390 34,000 345 385 0
2020-05-15 14:23:52 GMT 48.060928 41.897255 34,000 344 384 0
2020-05-15 14:23:47 GMT 48.049118 41.902542 34,000 343 382 64
2020-05-15 14:23:43 GMT 48.043304 41.905376 34,000 342 382 0
2020-05-15 14:23:40 GMT 48.038910 41.907486 34,000 342 381 0
2020-05-15 14:23:35 GMT 48.032410 41.910851 34,000 341 380 0
2020-05-15 14:23:32 GMT 48.026779 41.913872 34,000 340 380 0
2020-05-15 14:23:29 GMT 48.021652 41.916687 34,000 340 380 0
2020-05-15 14:23:26 GMT 48.015095 41.920376 34,000 340 380 0
2020-05-15 14:23:22 GMT 48.009613 41.923416 34,000 340 380 0
2020-05-15 14:23:19 GMT 48.004902 41.926083 34,000 340 380 0
2020-05-15 14:23:15 GMT 47.998352 41.929733 34,000 340 380 0
2020-05-15 14:23:09 GMT 47.988007 41.935501 34,025 340 381 0
2020-05-15 14:23:02 GMT 47.975990 41.942207 34,000 340 381 0
2020-05-15 14:22:58 GMT 47.971527 41.944702 34,000 340 381 64
2020-05-15 14:22:55 GMT 47.963699 41.949097 34,000 340 381 0
2020-05-15 14:22:51 GMT 47.958767 41.951786 34,000 340 381 0
2020-05-15 14:22:48 GMT 47.954903 41.953972 34,000 340 381 0
2020-05-15 14:22:44 GMT 47.947449 41.958160 34,000 340 382 0
2020-05-15 14:22:40 GMT 47.941681 41.961365 34,000 340 382 0
2020-05-15 14:22:37 GMT 47.935768 41.964603 34,000 340 382 64
2020-05-15 14:22:31 GMT 47.924881 41.970657 34,000 340 382 0
2020-05-15 14:22:27 GMT 47.920128 41.973335 34,000 340 382 -64
2020-05-15 14:22:24 GMT 47.913712 41.976906 34,000 340 382 -64
2020-05-15 14:22:20 GMT 47.896362 41.986588 34,025 340 381 0
2020-05-15 14:22:14 GMT 47.896362 41.986588 34,025 340 381 128
2020-05-15 14:22:09 GMT 47.890102 41.990097 34,000 340 381 128
2020-05-15 14:22:06 GMT 47.885120 41.992844 34,000 340 381 64
2020-05-15 14:22:03 GMT 47.879288 41.996063 34,000 340 381 64
2020-05-15 14:22:00 GMT 47.873703 41.999222 34,000 340 381 64
2020-05-15 14:21:57 GMT 47.870457 42.001015 34,000 340 381 0
2020-05-15 14:21:52 GMT 47.862076 42.005676 34,000 340 381 -128
2020-05-15 14:21:48 GMT 47.853745 42.010311 34,000 340 380 -64
2020-05-15 14:21:42 GMT 47.843552 42.016014 34,000 340 380 0
2020-05-15 14:21:37 GMT 47.837219 42.019535 34,025 340 379 64
2020-05-15 14:21:32 GMT 47.827209 42.025028 34,000 340 379 64
2020-05-15 14:21:27 GMT 47.820831 42.028622 34,000 340 379 0
2020-05-15 14:21:21 GMT 47.811104 42.034042 34,000 340 379 0
2020-05-15 14:21:18 GMT 47.806091 42.036781 34,000 340 379 -64
2020-05-15 14:21:15 GMT 47.801239 42.039459 34,000 340 377 -64
2020-05-15 14:21:12 GMT 47.795151 42.042892 34,000 340 377 0
2020-05-15 14:21:06 GMT 47.786942 42.047424 34,000 340 377 0
2020-05-15 14:21:03 GMT 47.781776 42.050312 34,000 340 377 0
2020-05-15 14:21:00 GMT 47.776703 42.053127 34,000 340 377 0
2020-05-15 14:20:57 GMT 47.769531 42.057072 34,000 340 377 64
2020-05-15 14:20:54 GMT 47.766182 42.058903 34,000 340 377 0
2020-05-15 14:20:49 GMT 47.757660 42.063629 34,000 340 377 0
2020-05-15 14:20:46 GMT 47.753403 42.065964 34,000 340 377 0
2020-05-15 14:20:40 GMT 47.743057 42.071732 34,000 340 377 0
2020-05-15 14:20:35 GMT 47.736385 42.075382 34,000 340 377 0
2020-05-15 14:20:30 GMT 47.726471 42.080875 34,000 340 377 0
2020-05-15 14:20:26 GMT 47.720718 42.084091 34,000 340 377 0
2020-05-15 14:20:20 GMT 47.711060 42.089378 34,000 340 377 0
2020-05-15 14:20:16 GMT 47.703800 42.093410 34,000 340 377 0
2020-05-15 14:20:09 GMT 47.693653 42.098976 34,000 340 378 0
2020-05-15 14:20:06 GMT 47.688034 42.102081 34,000 340 379 0
2020-05-15 14:20:00 GMT 47.676334 42.108555 34,000 340 378 64
2020-05-15 14:19:56 GMT 47.671417 42.111282 34,000 340 379 0
2020-05-15 14:19:48 GMT 47.658554 42.118355 34,000 340 379 0
2020-05-15 14:19:44 GMT 47.651711 42.122147 34,000 340 380 0
2020-05-15 14:19:34 GMT 47.636444 42.130508 34,000 340 380 -64
2020-05-15 14:19:24 GMT 47.616760 42.141357 34,000 340 380 0
2020-05-15 14:19:13 GMT 47.600555 42.150284 34,000 340 380 0
2020-05-15 14:19:05 GMT 47.586208 42.158134 34,000 340 380 0
2020-05-15 14:19:02 GMT 47.582809 42.160034 34,000 340 380 0
2020-05-15 14:18:53 GMT 47.565948 42.169304 34,000 340 379 -64
2020-05-15 14:18:43 GMT 47.550365 42.177853 34,000 340 379 -64
2020-05-15 14:18:31 GMT 47.523598 42.192501 34,000 340 379 0
2020-05-15 14:18:24 GMT 47.518848 42.195107 34,000 340 379 -64
2020-05-15 14:18:16 GMT 47.507256 42.201443 34,000 340 379 64
2020-05-15 14:18:13 GMT 47.501495 42.204597 34,000 340 379 0
2020-05-15 14:18:06 GMT 47.489456 42.211189 34,000 340 379 64
2020-05-15 14:18:02 GMT 47.485100 42.213627 34,000 340 379 64
2020-05-15 14:17:53 GMT 47.467594 42.223206 34,000 340 379 -64
2020-05-15 14:17:46 GMT 47.456772 42.229111 34,000 340 379 -128
2020-05-15 14:17:42 GMT 47.451160 42.232151 34,000 340 378 -64
2020-05-15 14:17:36 GMT 47.438828 42.238930 34,025 340 378 64
2020-05-15 14:17:31 GMT 47.433701 42.241745 34,025 340 377 0
2020-05-15 14:17:22 GMT 47.417412 42.250603 34,025 340 376 0
2020-05-15 14:17:11 GMT 47.400146 42.260078 34,025 340 376 64
2020-05-15 14:17:01 GMT 47.383896 42.268936 34,000 340 376 0
2020-05-15 14:16:50 GMT 47.365646 42.278912 34,000 340 377 0
2020-05-15 14:16:40 GMT 47.350067 42.287476 34,000 340 377 64
2020-05-15 14:16:30 GMT 47.333057 42.296799 34,000 340 378 -64
2020-05-15 14:16:20 GMT 47.316605 42.305740 34,025 341 378 -64
2020-05-15 14:16:07 GMT 47.286880 42.320042 34,000 344 380 0
2020-05-15 14:15:59 GMT 47.282597 42.321941 34,000 344 380 0
2020-05-15 14:15:53 GMT 47.269592 42.327232 34,000 346 382 64
2020-05-15 14:15:49 GMT 47.264721 42.329056 34,000 346 382 128
2020-05-15 14:15:38 GMT 47.247078 42.335392 34,000 347 384 64
2020-05-15 14:15:29 GMT 47.228302 42.341995 34,000 347 384 -64
2020-05-15 14:15:18 GMT 47.211323 42.348000 34,000 347 383 0
2020-05-15 14:15:10 GMT 47.197906 42.352707 34,000 347 383 64
2020-05-15 14:15:07 GMT 47.193420 42.354286 34,000 347 383 64
2020-05-15 14:15:00 GMT 47.180695 42.358749 34,000 347 382 -64
2020-05-15 14:14:57 GMT 47.176529 42.360191 34,000 347 382 0
2020-05-15 14:14:48 GMT 47.158813 42.366440 34,000 347 381 -64
2020-05-15 14:14:40 GMT 47.145676 42.371040 34,025 347 381 0
2020-05-15 14:14:37 GMT 47.141144 42.372620 34,025 347 381 0
2020-05-15 14:14:30 GMT 47.127594 42.377357 34,025 347 381 0
2020-05-15 14:14:27 GMT 47.123386 42.378845 34,025 347 381 0
2020-05-15 14:14:19 GMT 47.109886 42.383564 34,000 347 382 64
2020-05-15 14:14:16 GMT 47.105667 42.384979 34,000 347 383 64
2020-05-15 14:14:07 GMT 47.087677 42.391296 34,000 347 384 0
2020-05-15 14:13:59 GMT 47.075485 42.395535 34,000 347 384 0
2020-05-15 14:13:56 GMT 47.070271 42.397366 34,000 347 384 -64
2020-05-15 14:13:46 GMT 47.053024 42.403381 34,000 347 384 0
2020-05-15 14:13:39 GMT 47.040573 42.407707 34,000 347 384 0
2020-05-15 14:13:36 GMT 47.034622 42.409767 34,000 347 384 0
2020-05-15 14:13:28 GMT 47.022228 42.414059 34,000 347 385 0
2020-05-15 14:13:25 GMT 47.016411 42.416100 34,000 347 385 0
2020-05-15 14:13:18 GMT 47.005146 42.420044 34,000 347 385 -64
2020-05-15 14:13:15 GMT 46.998859 42.422226 34,000 347 385 0
2020-05-15 14:13:07 GMT 46.986557 42.426521 34,000 347 385 64
2020-05-15 14:13:04 GMT 46.981613 42.428238 34,000 347 385 0
2020-05-15 14:12:57 GMT 46.969299 42.432495 34,000 347 386 0
2020-05-15 14:12:54 GMT 46.963295 42.434624 34,000 347 386 0
2020-05-15 14:12:47 GMT 46.952225 42.438400 34,000 347 386 0
2020-05-15 14:12:44 GMT 46.945976 42.440609 34,000 347 386 0
2020-05-15 14:12:38 GMT 46.934464 42.444580 34,000 347 386 0
2020-05-15 14:12:34 GMT 46.928146 42.446808 34,000 347 386 0
2020-05-15 14:12:27 GMT 46.916565 42.450829 34,000 347 386 0
2020-05-15 14:12:24 GMT 46.910038 42.453072 34,000 347 386 0
2020-05-15 14:12:16 GMT 46.896446 42.457790 34,000 347 386 0
2020-05-15 14:12:13 GMT 46.891983 42.459274 34,000 347 386 0
2020-05-15 14:12:05 GMT 46.877243 42.464424 34,000 347 386 0
2020-05-15 14:12:02 GMT 46.873680 42.465611 34,000 347 386 0
2020-05-15 14:11:56 GMT 46.863281 42.469257 34,000 347 386 0
2020-05-15 14:11:53 GMT 46.856270 42.471634 34,000 347 386 0
2020-05-15 14:11:45 GMT 46.842499 42.476425 34,000 347 386 0
2020-05-15 14:11:42 GMT 46.838333 42.477901 34,000 347 386 64
2020-05-15 14:11:34 GMT 46.823090 42.483128 34,000 347 386 0
2020-05-15 14:11:31 GMT 46.820007 42.484200 34,000 347 386 0
2020-05-15 14:11:25 GMT 46.806473 42.488888 34,000 347 386 0
2020-05-15 14:11:22 GMT 46.802177 42.490379 34,000 347 386 0
2020-05-15 14:11:16 GMT 46.792774 42.493607 34,000 347 385 -64
2020-05-15 14:11:11 GMT 46.784161 42.496628 34,000 347 385 0
2020-05-15 14:11:03 GMT 46.769917 42.501503 34,000 347 384 -64
2020-05-15 14:11:00 GMT 46.766373 42.502754 34,000 347 383 -64
2020-05-15 14:10:56 GMT 46.757069 42.505966 34,000 347 383 -64
2020-05-15 14:10:50 GMT 46.748291 42.508984 34,025 347 383 -64
2020-05-15 14:10:45 GMT 46.739841 42.511940 34,025 347 382 0
2020-05-15 14:10:40 GMT 46.730534 42.515099 34,025 347 382 0
2020-05-15 14:10:35 GMT 46.722565 42.517895 34,000 347 382 64
2020-05-15 14:10:30 GMT 46.713638 42.520908 34,000 347 383 64
2020-05-15 14:10:25 GMT 46.705078 42.523857 34,000 347 383 64
2020-05-15 14:10:20 GMT 46.696014 42.527004 34,000 347 384 0
2020-05-15 14:10:14 GMT 46.686775 42.530136 34,000 347 384 0
2020-05-15 14:10:09 GMT 46.677975 42.533157 34,000 347 384 -64
2020-05-15 14:10:04 GMT 46.669830 42.535973 34,000 347 384 -64
2020-05-15 14:09:59 GMT 46.660309 42.539265 34,025 347 384 -64
2020-05-15 14:09:54 GMT 46.652481 42.541943 34,025 347 384 64
2020-05-15 14:09:49 GMT 46.643143 42.545158 34,000 347 384 0
2020-05-15 14:09:43 GMT 46.633438 42.548443 34,000 347 384 0
2020-05-15 14:09:38 GMT 46.624146 42.551659 34,000 347 384 0
2020-05-15 14:09:33 GMT 46.615643 42.554581 34,000 347 384 0
2020-05-15 14:09:28 GMT 46.606659 42.557617 34,000 347 384 0
2020-05-15 14:09:23 GMT 46.598282 42.560497 34,000 347 383 0
2020-05-15 14:09:17 GMT 46.588440 42.563850 34,000 347 383 64
2020-05-15 14:09:13 GMT 46.581379 42.566322 34,000 347 383 64
2020-05-15 14:09:08 GMT 46.571182 42.569813 34,000 347 383 0
2020-05-15 14:09:04 GMT 46.564247 42.572159 34,000 347 383 0
2020-05-15 14:08:57 GMT 46.552231 42.576309 34,000 347 383 0
2020-05-15 14:08:52 GMT 46.544037 42.579121 34,000 347 383 0
2020-05-15 14:08:48 GMT 46.529613 42.584038 34,000 347 382 -64
2020-05-15 14:08:42 GMT 46.527843 42.584656 34,000 347 382 0
2020-05-15 14:08:37 GMT 46.518448 42.587830 34,000 347 381 0
2020-05-15 14:08:33 GMT 46.511738 42.590149 34,000 347 381 0
2020-05-15 14:08:27 GMT 46.501263 42.593788 34,000 347 380 0
2020-05-15 14:08:24 GMT 46.497299 42.595135 34,000 347 379 -64
2020-05-15 14:08:21 GMT 46.492371 42.596809 34,000 347 379 0
2020-05-15 14:08:15 GMT 46.480316 42.600929 34,000 347 379 0
2020-05-15 14:08:12 GMT 46.475800 42.602440 34,000 347 378 0
2020-05-15 14:08:04 GMT 46.460678 42.607658 34,000 347 378 0
2020-05-15 14:08:01 GMT 46.458160 42.608463 34,000 347 378 0
2020-05-15 14:07:56 GMT 46.448238 42.611847 34,000 347 378 0
2020-05-15 14:07:51 GMT 46.441544 42.614159 34,000 347 378 0
2020-05-15 14:07:45 GMT 46.431248 42.617683 34,000 347 379 0
2020-05-15 14:07:42 GMT 46.424591 42.619949 34,000 347 379 0
2020-05-15 14:07:36 GMT 46.413326 42.623726 34,000 347 380 0
2020-05-15 14:07:31 GMT 46.407257 42.625813 34,000 347 380 0
2020-05-15 14:07:25 GMT 46.395721 42.629768 34,000 347 380 0
2020-05-15 14:07:22 GMT 46.388580 42.632179 34,000 347 381 0
2020-05-15 14:07:11 GMT 46.366013 42.639816 34,000 347 381 0
2020-05-15 14:07:05 GMT 46.360840 42.641556 34,000 347 382 0
2020-05-15 14:07:01 GMT 46.354855 42.643570 34,000 347 382 0
2020-05-15 14:06:57 GMT 46.346523 42.646385 34,000 347 382 0
2020-05-15 14:06:51 GMT 46.337769 42.649395 34,000 347 382 0
2020-05-15 14:06:46 GMT 46.328842 42.652409 34,000 347 382 -64
2020-05-15 14:06:41 GMT 46.320190 42.655357 34,000 347 382 0
2020-05-15 14:06:37 GMT 46.311890 42.658127 34,000 347 382 0
2020-05-15 14:06:34 GMT 46.307281 42.659706 34,025 347 382 0
2020-05-15 14:06:30 GMT 46.302063 42.661453 34,000 347 382 0
2020-05-15 14:06:26 GMT 46.294601 42.663998 34,000 347 382 0
2020-05-15 14:06:21 GMT 46.285076 42.667191 34,000 347 382 0
2020-05-15 14:06:15 GMT 46.275925 42.670296 34,000 347 382 64
2020-05-15 14:06:10 GMT 46.267525 42.673164 34,000 347 382 64
2020-05-15 14:06:06 GMT 46.258633 42.676117 34,000 347 382 0
2020-05-15 14:06:00 GMT 46.250534 42.678864 34,000 347 383 64
2020-05-15 14:05:53 GMT 46.236191 42.683693 34,000 347 383 64
2020-05-15 14:05:50 GMT 46.232529 42.684967 34,000 347 383 0
2020-05-15 14:05:44 GMT 46.215153 42.690811 34,000 347 382 0
2020-05-15 14:05:40 GMT 46.215153 42.690811 34,000 347 382 0
2020-05-15 14:05:32 GMT 46.198013 42.696625 34,000 347 382 0
2020-05-15 14:05:22 GMT 46.183594 42.701511 34,000 347 381 0
2020-05-15 14:05:19 GMT 46.180054 42.702690 34,000 347 381 0
2020-05-15 14:05:12 GMT 46.166199 42.707409 34,000 347 381 -64
2020-05-15 14:05:09 GMT 46.162582 42.708679 34,000 347 381 0
2020-05-15 14:04:59 GMT 46.145416 42.714508 34,000 347 381 0
2020-05-15 14:04:49 GMT 46.127884 42.720470 34,000 347 380 -64
2020-05-15 14:04:41 GMT 46.109341 42.726723 34,000 347 380 0
2020-05-15 14:04:28 GMT 46.091557 42.732697 34,000 347 380 64
2020-05-15 14:04:17 GMT 46.072723 42.739094 34,000 347 381 -64
2020-05-15 14:04:10 GMT 46.059715 42.743408 34,000 347 381 0
2020-05-15 14:04:06 GMT 46.053432 42.745537 34,000 347 381 64
2020-05-15 14:03:59 GMT 46.042118 42.749382 34,000 347 382 64
2020-05-15 14:03:55 GMT 46.034904 42.751785 34,000 347 382 64
2020-05-15 14:03:48 GMT 46.017960 42.757484 34,000 347 381 -64
2020-05-15 14:03:45 GMT 46.017960 42.757484 34,000 347 381 -64
2020-05-15 14:03:38 GMT 46.005482 42.761673 34,000 347 380 -128
2020-05-15 14:03:27 GMT 45.988174 42.767429 34,025 347 379 128
2020-05-15 14:03:17 GMT 45.970383 42.773415 34,000 347 380 0
2020-05-15 14:03:07 GMT 45.953484 42.779045 34,000 347 379 0
2020-05-15 14:02:59 GMT 45.938049 42.784180 34,000 347 378 0
2020-05-15 14:02:47 GMT 45.918709 42.790649 34,000 347 378 -64
2020-05-15 14:02:36 GMT 45.900925 42.796623 34,000 347 378 0
2020-05-15 14:02:26 GMT 45.883530 42.802467 34,000 347 378 128
2020-05-15 14:02:16 GMT 45.866337 42.808159 34,000 347 379 0
2020-05-15 14:02:05 GMT 45.848785 42.813988 34,000 347 380 -192
2020-05-15 14:01:53 GMT 45.827698 42.820999 34,000 347 379 64
2020-05-15 14:01:45 GMT 45.811825 42.826286 34,000 347 378 64
2020-05-15 14:01:34 GMT 45.794907 42.831944 34,000 347 377 64
2020-05-15 14:01:23 GMT 45.776917 42.837906 34,000 347 377 0
2020-05-15 14:01:13 GMT 45.758942 42.843864 34,000 347 377 0
2020-05-15 14:01:02 GMT 45.741119 42.849827 34,000 347 378 -64
2020-05-15 14:00:52 GMT 45.722717 42.855923 34,000 347 378 0
2020-05-15 14:00:42 GMT 45.704819 42.861885 34,000 347 378 0
2020-05-15 14:00:34 GMT 45.691532 42.866249 34,000 347 378 -128
2020-05-15 14:00:31 GMT 45.687332 42.867645 34,000 347 378 -128
2020-05-15 14:00:21 GMT 45.667141 42.874352 34,000 347 377 0
2020-05-15 14:00:12 GMT 45.656296 42.877964 34,000 347 376 0
2020-05-15 14:00:09 GMT 45.649448 42.880257 34,000 347 376 0
2020-05-15 14:00:03 GMT 45.639397 42.883553 34,000 347 376 64
2020-05-15 13:59:59 GMT 45.632786 42.885750 34,000 347 376 0
2020-05-15 13:59:53 GMT 45.621517 42.889526 34,000 347 376 0
2020-05-15 13:59:49 GMT 45.614349 42.891930 34,000 347 376 64
2020-05-15 13:59:42 GMT 45.604107 42.895294 34,000 347 376 64
2020-05-15 13:59:38 GMT 45.596146 42.897926 34,000 347 377 -128
2020-05-15 13:59:32 GMT 45.586990 42.901009 34,000 347 377 -128
2020-05-15 13:59:26 GMT 45.577377 42.904156 34,025 347 377 -64
2020-05-15 13:59:22 GMT 45.569321 42.906837 34,025 347 377 0
2020-05-15 13:59:17 GMT 45.560303 42.909851 34,025 347 377 64
2020-05-15 13:59:12 GMT 45.554123 42.911861 34,000 347 377 64
2020-05-15 13:59:08 GMT 45.546661 42.914337 34,000 347 377 64
2020-05-15 13:59:05 GMT 45.542286 42.915813 34,000 347 377 64
2020-05-15 13:59:00 GMT 45.533707 42.918613 34,000 348 378 -64
2020-05-15 13:58:56 GMT 45.524460 42.921623 34,000 348 378 -128
2020-05-15 13:58:45 GMT 45.507339 42.927116 34,025 348 378 256
2020-05-15 13:58:41 GMT 45.498459 42.929928 34,000 347 377 -64
2020-05-15 13:58:29 GMT 45.480930 42.937386 34,000 340 370 0
2020-05-15 13:58:20 GMT 45.465614 42.947163 34,000 332 364 64
2020-05-15 13:58:09 GMT 45.448952 42.961903 34,000 324 360 -128
2020-05-15 13:57:57 GMT 45.434967 42.978451 34,000 319 358 0
2020-05-15 13:57:51 GMT 45.427814 42.987492 34,000 319 358 -64
2020-05-15 13:57:47 GMT 45.421532 42.995464 34,025 319 358 -64
2020-05-15 13:57:41 GMT 45.415512 43.002972 34,025 319 358 -64
2020-05-15 13:57:36 GMT 45.406311 43.014549 34,025 319 358 64
2020-05-15 13:57:28 GMT 45.398529 43.024357 34,025 319 358 128
2020-05-15 13:57:21 GMT 45.390198 43.034885 34,000 319 359 192
2020-05-15 13:57:17 GMT 45.386803 43.039143 34,000 319 360 192
2020-05-15 13:57:12 GMT 45.380333 43.047249 33,975 319 361 192
2020-05-15 13:57:07 GMT 45.374222 43.054897 33,975 319 362 640
2020-05-15 13:57:01 GMT 45.366550 43.064529 33,875 319 365 960
2020-05-15 13:56:58 GMT 45.361526 43.070827 33,825 319 365 896
2020-05-15 13:56:48 GMT 45.348175 43.087528 33,675 319 366 896
2020-05-15 13:56:40 GMT 45.338699 43.099430 33,550 319 366 1152
2020-05-15 13:56:36 GMT 45.334854 43.104271 33,500 319 366 1088
2020-05-15 13:56:30 GMT 45.325958 43.115444 33,375 319 368 704
2020-05-15 13:56:26 GMT 45.321957 43.120468 33,350 319 368 896
2020-05-15 13:56:19 GMT 45.312927 43.131737 33,225 319 367 1088
2020-05-15 13:56:16 GMT 45.308167 43.137688 33,150 319 367 1088
2020-05-15 13:56:06 GMT 45.295853 43.153118 32,975 319 366 1088
2020-05-15 13:55:59 GMT 45.285599 43.165955 32,825 319 366 960
2020-05-15 13:55:55 GMT 45.282387 43.169971 32,800 319 366 960
2020-05-15 13:55:46 GMT 45.269676 43.185848 32,625 319 364 832
2020-05-15 13:55:38 GMT 45.259575 43.198444 32,525 319 362 832
2020-05-15 13:55:35 GMT 45.257061 43.201591 32,500 319 362 832
2020-05-15 13:55:25 GMT 45.244167 43.217670 32,350 319 360 960
2020-05-15 13:55:15 GMT 45.230434 43.234818 32,175 319 358 832
2020-05-15 13:55:07 GMT 45.220596 43.247028 32,075 319 357 960
2020-05-15 13:54:56 GMT 45.207668 43.263157 31,900 319 354 1088
2020-05-15 13:54:45 GMT 45.194775 43.279167 31,700 319 352 1280
2020-05-15 13:54:35 GMT 45.182625 43.294239 31,475 319 352 1600
2020-05-15 13:54:24 GMT 45.168613 43.311657 31,175 319 353 1472
2020-05-15 13:54:14 GMT 45.156555 43.326546 30,925 319 352 1536
2020-05-15 13:54:04 GMT 45.143101 43.343208 30,650 319 352 1664
2020-05-15 13:53:53 GMT 45.129322 43.360359 30,350 319 352 1536
2020-05-15 13:53:42 GMT 45.115868 43.377239 30,025 319 352 1856
2020-05-15 13:53:31 GMT 45.103317 43.391548 29,725 326 355 1664
2020-05-15 13:53:21 GMT 45.088257 43.404236 29,425 334 358 2048
2020-05-15 13:53:10 GMT 45.072342 43.413681 29,050 342 364 2176
2020-05-15 13:52:59 GMT 45.055161 43.419800 28,675 351 370 2112
2020-05-15 13:52:50 GMT 45.037102 43.422928 28,300 355 375 2176
2020-05-15 13:52:39 GMT 45.019787 43.425472 27,950 355 375 1984
2020-05-15 13:52:29 GMT 45.001007 43.428234 27,600 355 375 1792
2020-05-15 13:52:18 GMT 44.984032 43.430763 27,300 355 375 1984
2020-05-15 13:52:07 GMT 44.965969 43.433510 26,950 354 373 1728
2020-05-15 13:51:58 GMT 44.947357 43.436279 26,650 354 372 1664
2020-05-15 13:51:47 GMT 44.930832 43.438698 26,400 354 369 1600
2020-05-15 13:51:37 GMT 44.912342 43.441483 26,100 355 365 1728
2020-05-15 13:51:25 GMT 44.894836 43.444096 25,775 355 363 1792
2020-05-15 13:51:16 GMT 44.875149 43.446976 25,400 355 362 2368
2020-05-15 13:51:04 GMT 44.858047 43.449425 24,975 354 362 2304
2020-05-15 13:50:54 GMT 44.841385 43.451908 24,625 354 362 1984
2020-05-15 13:50:44 GMT 44.823715 43.454590 24,275 354 360 1856
2020-05-15 13:50:32 GMT 44.806252 43.457226 23,950 354 356 2112
2020-05-15 13:50:23 GMT 44.790070 43.459755 23,600 354 354 1920
2020-05-15 13:50:13 GMT 44.772812 43.462437 23,275 354 350 1920
2020-05-15 13:50:01 GMT 44.755875 43.465248 22,925 354 346 2240
2020-05-15 13:49:52 GMT 44.740101 43.468079 22,550 353 345 2176
2020-05-15 13:49:41 GMT 44.724087 43.471092 22,200 353 344 1984
2020-05-15 13:49:30 GMT 44.706161 43.474506 21,825 353 339 1664
2020-05-15 13:49:21 GMT 44.690643 43.477348 21,550 353 335 1856
2020-05-15 13:49:09 GMT 44.673157 43.480354 21,150 354 332 2688
2020-05-15 13:48:58 GMT 44.656952 43.482777 20,675 354 332 2944
2020-05-15 13:48:48 GMT 44.640942 43.485161 20,150 354 333 3072
2020-05-15 13:48:37 GMT 44.625870 43.487419 19,650 354 335 2816
2020-05-15 13:48:28 GMT 44.610683 43.489780 19,225 354 334 2176
2020-05-15 13:48:16 GMT 44.592808 43.492661 18,800 354 332 2048

Making use of Plane Finder data

You are free to use the raw flight data, aircraft information and images provided in this report for your own purposes provided the data is correctly attributed to Plane Finder. We ask that you please credit Plane Finder and link to planefinder.net in close proximity to the content.

Optionally one of the following logos (no smaller then 150x24px) can be used and must link to planefinder.net

Embedding the Plane Finder map

You are welcome to embed the Plane Finder playback map on your website to offer visitors a more interactive experience. We suggest using the following HTML code:

<iframe src="//planefinder.net/data/report/SU1311-RA-89061-7700-squawk-2020-05-15/map" width="800" height="600" seamless="seamless"></iframe>

Where our data comes from

Plane Finder has a global network of data feeds and antenna radars that receive data broadcast directly from aircraft. The primary technologies used are ADS-B and MLAT. We also show feeds from the FAA and a FLARM glider feed.

Click here to find out more about the Plane Finder network.

How we collect our data